<?xml version="1.0" encoding="UTF-8" standalone="no" ?>
<gpx xmlns="http://www.topografix.com/GPX/1/1" xmlns:xsi="http://www.w3.org/2001/XMLSchema-instance" xsi:schemaLocation="http://www.topografix.com/GPX/1/1 http://www.topografix.com/GPX/1/1/gpx.xsd" version="1.1" creator="VisuGPX - https://www.visugpx.com">
  <metadata>
    <name>13820503-2021 vtt n°8 la Vall'dingue</name>
  </metadata>
  <trk>
    <name><![CDATA[13820503-2021 vtt n°8 la Vall'dingue]]></name>
    <trkseg>
      <trkpt lat="48.13869" lon="6.6034">
        <ele>373</ele>
        <time>2022-01-18T09:27:45Z</time>
      </trkpt>
      <trkpt lat="48.13865" lon="6.60361">
        <ele>373</ele>
        <time>2022-01-18T09:27:48Z</time>
      </trkpt>
      <trkpt lat="48.13859" lon="6.60371">
        <ele>372</ele>
        <time>2022-01-18T09:27:50Z</time>
      </trkpt>
      <trkpt lat="48.13839" lon="6.60379">
        <ele>372</ele>
        <time>2022-01-18T09:27:55Z</time>
      </trkpt>
      <trkpt lat="48.13794" lon="6.60425">
        <ele>371</ele>
        <time>2022-01-18T09:28:08Z</time>
      </trkpt>
      <trkpt lat="48.13769" lon="6.60432">
        <ele>371</ele>
        <time>2022-01-18T09:28:14Z</time>
      </trkpt>
      <trkpt lat="48.13731" lon="6.60436">
        <ele>371</ele>
        <time>2022-01-18T09:28:23Z</time>
      </trkpt>
      <trkpt lat="48.13699" lon="6.60434">
        <ele>370</ele>
        <time>2022-01-18T09:28:30Z</time>
      </trkpt>
      <trkpt lat="48.13602" lon="6.60367">
        <ele>369</ele>
        <time>2022-01-18T09:28:55Z</time>
      </trkpt>
      <trkpt lat="48.13584" lon="6.60352">
        <ele>370</ele>
        <time>2022-01-18T09:29:00Z</time>
      </trkpt>
      <trkpt lat="48.13567" lon="6.60342">
        <ele>370</ele>
        <time>2022-01-18T09:29:04Z</time>
      </trkpt>
      <trkpt lat="48.13547" lon="6.6034">
        <ele>369</ele>
        <time>2022-01-18T09:29:09Z</time>
      </trkpt>
      <trkpt lat="48.13474" lon="6.60339">
        <ele>369</ele>
        <time>2022-01-18T09:29:26Z</time>
      </trkpt>
      <trkpt lat="48.13451" lon="6.60345">
        <ele>370</ele>
        <time>2022-01-18T09:29:32Z</time>
      </trkpt>
      <trkpt lat="48.13424" lon="6.60356">
        <ele>370</ele>
        <time>2022-01-18T09:29:38Z</time>
      </trkpt>
      <trkpt lat="48.13404" lon="6.60372">
        <ele>369</ele>
        <time>2022-01-18T09:29:43Z</time>
      </trkpt>
      <trkpt lat="48.13402" lon="6.60371">
        <ele>370</ele>
        <time>2022-01-18T09:29:44Z</time>
      </trkpt>
      <trkpt lat="48.13355" lon="6.60448">
        <ele>375</ele>
        <time>2022-01-18T09:30:00Z</time>
      </trkpt>
      <trkpt lat="48.13314" lon="6.60415">
        <ele>373</ele>
        <time>2022-01-18T09:30:11Z</time>
      </trkpt>
      <trkpt lat="48.13176" lon="6.604">
        <ele>380</ele>
        <time>2022-01-18T09:30:43Z</time>
      </trkpt>
      <trkpt lat="48.13124" lon="6.60411">
        <ele>381</ele>
        <time>2022-01-18T09:30:56Z</time>
      </trkpt>
      <trkpt lat="48.13104" lon="6.60431">
        <ele>383</ele>
        <time>2022-01-18T09:31:01Z</time>
      </trkpt>
      <trkpt lat="48.13128" lon="6.60463">
        <ele>386</ele>
        <time>2022-01-18T09:31:09Z</time>
      </trkpt>
      <trkpt lat="48.13158" lon="6.60519">
        <ele>392</ele>
        <time>2022-01-18T09:31:20Z</time>
      </trkpt>
      <trkpt lat="48.13162" lon="6.60566">
        <ele>396</ele>
        <time>2022-01-18T09:31:27Z</time>
      </trkpt>
      <trkpt lat="48.13148" lon="6.60612">
        <ele>398</ele>
        <time>2022-01-18T09:31:35Z</time>
      </trkpt>
      <trkpt lat="48.13033" lon="6.60757">
        <ele>410</ele>
        <time>2022-01-18T09:32:10Z</time>
      </trkpt>
      <trkpt lat="48.13007" lon="6.60817">
        <ele>414</ele>
        <time>2022-01-18T09:32:21Z</time>
      </trkpt>
      <trkpt lat="48.12974" lon="6.60965">
        <ele>431</ele>
        <time>2022-01-18T09:32:46Z</time>
      </trkpt>
      <trkpt lat="48.12933" lon="6.61006">
        <ele>438</ele>
        <time>2022-01-18T09:32:57Z</time>
      </trkpt>
      <trkpt lat="48.12801" lon="6.61071">
        <ele>444</ele>
        <time>2022-01-18T09:33:30Z</time>
      </trkpt>
      <trkpt lat="48.12746" lon="6.61104">
        <ele>451</ele>
        <time>2022-01-18T09:33:44Z</time>
      </trkpt>
      <trkpt lat="48.1272" lon="6.61148">
        <ele>460</ele>
        <time>2022-01-18T09:33:53Z</time>
      </trkpt>
      <trkpt lat="48.12678" lon="6.61123">
        <ele>464</ele>
        <time>2022-01-18T09:34:03Z</time>
      </trkpt>
      <trkpt lat="48.12668" lon="6.61066">
        <ele>462</ele>
        <time>2022-01-18T09:34:12Z</time>
      </trkpt>
      <trkpt lat="48.12616" lon="6.60929">
        <ele>474</ele>
        <time>2022-01-18T09:34:37Z</time>
      </trkpt>
      <trkpt lat="48.12577" lon="6.60845">
        <ele>474</ele>
        <time>2022-01-18T09:34:53Z</time>
      </trkpt>
      <trkpt lat="48.12472" lon="6.60804">
        <ele>482</ele>
        <time>2022-01-18T09:35:18Z</time>
      </trkpt>
      <trkpt lat="48.12453" lon="6.60812">
        <ele>482</ele>
        <time>2022-01-18T09:35:23Z</time>
      </trkpt>
      <trkpt lat="48.12431" lon="6.60875">
        <ele>493</ele>
        <time>2022-01-18T09:35:34Z</time>
      </trkpt>
      <trkpt lat="48.12396" lon="6.60876">
        <ele>497</ele>
        <time>2022-01-18T09:35:42Z</time>
      </trkpt>
      <trkpt lat="48.12358" lon="6.60829">
        <ele>493</ele>
        <time>2022-01-18T09:35:54Z</time>
      </trkpt>
      <trkpt lat="48.12322" lon="6.60741">
        <ele>482</ele>
        <time>2022-01-18T09:36:10Z</time>
      </trkpt>
      <trkpt lat="48.12298" lon="6.60633">
        <ele>470</ele>
        <time>2022-01-18T09:36:28Z</time>
      </trkpt>
      <trkpt lat="48.12311" lon="6.60494">
        <ele>456</ele>
        <time>2022-01-18T09:36:49Z</time>
      </trkpt>
      <trkpt lat="48.12328" lon="6.60435">
        <ele>463</ele>
        <time>2022-01-18T09:36:59Z</time>
      </trkpt>
      <trkpt lat="48.12298" lon="6.60433">
        <ele>464</ele>
        <time>2022-01-18T09:37:06Z</time>
      </trkpt>
      <trkpt lat="48.12241" lon="6.60453">
        <ele>466</ele>
        <time>2022-01-18T09:37:20Z</time>
      </trkpt>
      <trkpt lat="48.12202" lon="6.60442">
        <ele>471</ele>
        <time>2022-01-18T09:37:29Z</time>
      </trkpt>
      <trkpt lat="48.1215" lon="6.60448">
        <ele>478</ele>
        <time>2022-01-18T09:37:42Z</time>
      </trkpt>
      <trkpt lat="48.12125" lon="6.60453">
        <ele>480</ele>
        <time>2022-01-18T09:37:47Z</time>
      </trkpt>
      <trkpt lat="48.12081" lon="6.60483">
        <ele>487</ele>
        <time>2022-01-18T09:37:59Z</time>
      </trkpt>
      <trkpt lat="48.12085" lon="6.60491">
        <ele>488</ele>
        <time>2022-01-18T09:38:00Z</time>
      </trkpt>
      <trkpt lat="48.12086" lon="6.60508">
        <ele>491</ele>
        <time>2022-01-18T09:38:03Z</time>
      </trkpt>
      <trkpt lat="48.12073" lon="6.60556">
        <ele>495</ele>
        <time>2022-01-18T09:38:11Z</time>
      </trkpt>
      <trkpt lat="48.12075" lon="6.60584">
        <ele>499</ele>
        <time>2022-01-18T09:38:15Z</time>
      </trkpt>
      <trkpt lat="48.12089" lon="6.60594">
        <ele>501</ele>
        <time>2022-01-18T09:38:19Z</time>
      </trkpt>
      <trkpt lat="48.12112" lon="6.60595">
        <ele>501</ele>
        <time>2022-01-18T09:38:24Z</time>
      </trkpt>
      <trkpt lat="48.1212" lon="6.60607">
        <ele>503</ele>
        <time>2022-01-18T09:38:27Z</time>
      </trkpt>
      <trkpt lat="48.12134" lon="6.60619">
        <ele>505</ele>
        <time>2022-01-18T09:38:31Z</time>
      </trkpt>
      <trkpt lat="48.1215" lon="6.60652">
        <ele>510</ele>
        <time>2022-01-18T09:38:37Z</time>
      </trkpt>
      <trkpt lat="48.12153" lon="6.60699">
        <ele>516</ele>
        <time>2022-01-18T09:38:45Z</time>
      </trkpt>
      <trkpt lat="48.12166" lon="6.60728">
        <ele>520</ele>
        <time>2022-01-18T09:38:50Z</time>
      </trkpt>
      <trkpt lat="48.12167" lon="6.60753">
        <ele>523</ele>
        <time>2022-01-18T09:38:54Z</time>
      </trkpt>
      <trkpt lat="48.12171" lon="6.60773">
        <ele>526</ele>
        <time>2022-01-18T09:38:57Z</time>
      </trkpt>
      <trkpt lat="48.1219" lon="6.60805">
        <ele>528</ele>
        <time>2022-01-18T09:39:04Z</time>
      </trkpt>
      <trkpt lat="48.12198" lon="6.60823">
        <ele>530</ele>
        <time>2022-01-18T09:39:07Z</time>
      </trkpt>
      <trkpt lat="48.12222" lon="6.60847">
        <ele>529</ele>
        <time>2022-01-18T09:39:14Z</time>
      </trkpt>
      <trkpt lat="48.12229" lon="6.60872">
        <ele>531</ele>
        <time>2022-01-18T09:39:18Z</time>
      </trkpt>
      <trkpt lat="48.1223" lon="6.60887">
        <ele>534</ele>
        <time>2022-01-18T09:39:20Z</time>
      </trkpt>
      <trkpt lat="48.12243" lon="6.60928">
        <ele>537</ele>
        <time>2022-01-18T09:39:28Z</time>
      </trkpt>
      <trkpt lat="48.1225" lon="6.60941">
        <ele>538</ele>
        <time>2022-01-18T09:39:30Z</time>
      </trkpt>
      <trkpt lat="48.12251" lon="6.60972">
        <ele>543</ele>
        <time>2022-01-18T09:39:35Z</time>
      </trkpt>
      <trkpt lat="48.12261" lon="6.60988">
        <ele>544</ele>
        <time>2022-01-18T09:39:38Z</time>
      </trkpt>
      <trkpt lat="48.12263" lon="6.60997">
        <ele>545</ele>
        <time>2022-01-18T09:39:40Z</time>
      </trkpt>
      <trkpt lat="48.12276" lon="6.61015">
        <ele>544</ele>
        <time>2022-01-18T09:39:44Z</time>
      </trkpt>
      <trkpt lat="48.12276" lon="6.61024">
        <ele>545</ele>
        <time>2022-01-18T09:39:45Z</time>
      </trkpt>
      <trkpt lat="48.1227" lon="6.61047">
        <ele>549</ele>
        <time>2022-01-18T09:39:49Z</time>
      </trkpt>
      <trkpt lat="48.12271" lon="6.61061">
        <ele>551</ele>
        <time>2022-01-18T09:39:51Z</time>
      </trkpt>
      <trkpt lat="48.1228" lon="6.61091">
        <ele>552</ele>
        <time>2022-01-18T09:39:57Z</time>
      </trkpt>
      <trkpt lat="48.12286" lon="6.61103">
        <ele>552</ele>
        <time>2022-01-18T09:39:59Z</time>
      </trkpt>
      <trkpt lat="48.12292" lon="6.61152">
        <ele>555</ele>
        <time>2022-01-18T09:40:07Z</time>
      </trkpt>
      <trkpt lat="48.12289" lon="6.61163">
        <ele>556</ele>
        <time>2022-01-18T09:40:09Z</time>
      </trkpt>
      <trkpt lat="48.12289" lon="6.61177">
        <ele>557</ele>
        <time>2022-01-18T09:40:11Z</time>
      </trkpt>
      <trkpt lat="48.12294" lon="6.61189">
        <ele>557</ele>
        <time>2022-01-18T09:40:13Z</time>
      </trkpt>
      <trkpt lat="48.12308" lon="6.61207">
        <ele>557</ele>
        <time>2022-01-18T09:40:17Z</time>
      </trkpt>
      <trkpt lat="48.12313" lon="6.61221">
        <ele>558</ele>
        <time>2022-01-18T09:40:20Z</time>
      </trkpt>
      <trkpt lat="48.12337" lon="6.61242">
        <ele>558</ele>
        <time>2022-01-18T09:40:26Z</time>
      </trkpt>
      <trkpt lat="48.12385" lon="6.61249">
        <ele>559</ele>
        <time>2022-01-18T09:40:37Z</time>
      </trkpt>
      <trkpt lat="48.12441" lon="6.61263">
        <ele>557</ele>
        <time>2022-01-18T09:40:51Z</time>
      </trkpt>
      <trkpt lat="48.12454" lon="6.61272">
        <ele>556</ele>
        <time>2022-01-18T09:40:54Z</time>
      </trkpt>
      <trkpt lat="48.12454" lon="6.61276">
        <ele>557</ele>
        <time>2022-01-18T09:40:55Z</time>
      </trkpt>
      <trkpt lat="48.12469" lon="6.61263">
        <ele>554</ele>
        <time>2022-01-18T09:40:59Z</time>
      </trkpt>
      <trkpt lat="48.1248" lon="6.61257">
        <ele>552</ele>
        <time>2022-01-18T09:41:02Z</time>
      </trkpt>
      <trkpt lat="48.12482" lon="6.6128">
        <ele>553</ele>
        <time>2022-01-18T09:41:05Z</time>
      </trkpt>
      <trkpt lat="48.12479" lon="6.61301">
        <ele>555</ele>
        <time>2022-01-18T09:41:08Z</time>
      </trkpt>
      <trkpt lat="48.12482" lon="6.6132">
        <ele>556</ele>
        <time>2022-01-18T09:41:12Z</time>
      </trkpt>
      <trkpt lat="48.1247" lon="6.61414">
        <ele>561</ele>
        <time>2022-01-18T09:41:26Z</time>
      </trkpt>
      <trkpt lat="48.12466" lon="6.61481">
        <ele>565</ele>
        <time>2022-01-18T09:41:37Z</time>
      </trkpt>
      <trkpt lat="48.12467" lon="6.61557">
        <ele>568</ele>
        <time>2022-01-18T09:41:49Z</time>
      </trkpt>
      <trkpt lat="48.12499" lon="6.61672">
        <ele>572</ele>
        <time>2022-01-18T09:42:08Z</time>
      </trkpt>
      <trkpt lat="48.12514" lon="6.61693">
        <ele>572</ele>
        <time>2022-01-18T09:42:13Z</time>
      </trkpt>
      <trkpt lat="48.12523" lon="6.61718">
        <ele>573</ele>
        <time>2022-01-18T09:42:17Z</time>
      </trkpt>
      <trkpt lat="48.12522" lon="6.61741">
        <ele>576</ele>
        <time>2022-01-18T09:42:21Z</time>
      </trkpt>
      <trkpt lat="48.12508" lon="6.61754">
        <ele>578</ele>
        <time>2022-01-18T09:42:25Z</time>
      </trkpt>
      <trkpt lat="48.12429" lon="6.6172">
        <ele>580</ele>
        <time>2022-01-18T09:42:44Z</time>
      </trkpt>
      <trkpt lat="48.12401" lon="6.61719">
        <ele>582</ele>
        <time>2022-01-18T09:42:51Z</time>
      </trkpt>
      <trkpt lat="48.12373" lon="6.61714">
        <ele>583</ele>
        <time>2022-01-18T09:42:57Z</time>
      </trkpt>
      <trkpt lat="48.12335" lon="6.61701">
        <ele>585</ele>
        <time>2022-01-18T09:43:06Z</time>
      </trkpt>
      <trkpt lat="48.12253" lon="6.61678">
        <ele>590</ele>
        <time>2022-01-18T09:43:26Z</time>
      </trkpt>
      <trkpt lat="48.12181" lon="6.61662">
        <ele>591</ele>
        <time>2022-01-18T09:43:43Z</time>
      </trkpt>
      <trkpt lat="48.12088" lon="6.61629">
        <ele>597</ele>
        <time>2022-01-18T09:44:05Z</time>
      </trkpt>
      <trkpt lat="48.12014" lon="6.6161">
        <ele>599</ele>
        <time>2022-01-18T09:44:23Z</time>
      </trkpt>
      <trkpt lat="48.11985" lon="6.61605">
        <ele>598</ele>
        <time>2022-01-18T09:44:29Z</time>
      </trkpt>
      <trkpt lat="48.11952" lon="6.61594">
        <ele>595</ele>
        <time>2022-01-18T09:44:37Z</time>
      </trkpt>
      <trkpt lat="48.11929" lon="6.61583">
        <ele>593</ele>
        <time>2022-01-18T09:44:43Z</time>
      </trkpt>
      <trkpt lat="48.11894" lon="6.61578">
        <ele>590</ele>
        <time>2022-01-18T09:44:51Z</time>
      </trkpt>
      <trkpt lat="48.11851" lon="6.61558">
        <ele>585</ele>
        <time>2022-01-18T09:45:02Z</time>
      </trkpt>
      <trkpt lat="48.11825" lon="6.61587">
        <ele>584</ele>
        <time>2022-01-18T09:45:09Z</time>
      </trkpt>
      <trkpt lat="48.11806" lon="6.61655">
        <ele>587</ele>
        <time>2022-01-18T09:45:21Z</time>
      </trkpt>
      <trkpt lat="48.11746" lon="6.61762">
        <ele>593</ele>
        <time>2022-01-18T09:45:43Z</time>
      </trkpt>
      <trkpt lat="48.11723" lon="6.61781">
        <ele>594</ele>
        <time>2022-01-18T09:45:49Z</time>
      </trkpt>
      <trkpt lat="48.11694" lon="6.618">
        <ele>595</ele>
        <time>2022-01-18T09:45:56Z</time>
      </trkpt>
      <trkpt lat="48.11647" lon="6.6186">
        <ele>598</ele>
        <time>2022-01-18T09:46:10Z</time>
      </trkpt>
      <trkpt lat="48.1162" lon="6.61949">
        <ele>604</ele>
        <time>2022-01-18T09:46:26Z</time>
      </trkpt>
      <trkpt lat="48.11581" lon="6.62006">
        <ele>605</ele>
        <time>2022-01-18T09:46:38Z</time>
      </trkpt>
      <trkpt lat="48.11573" lon="6.62038">
        <ele>605</ele>
        <time>2022-01-18T09:46:44Z</time>
      </trkpt>
      <trkpt lat="48.11553" lon="6.62063">
        <ele>603</ele>
        <time>2022-01-18T09:46:50Z</time>
      </trkpt>
      <trkpt lat="48.11524" lon="6.62141">
        <ele>605</ele>
        <time>2022-01-18T09:47:04Z</time>
      </trkpt>
      <trkpt lat="48.11491" lon="6.62186">
        <ele>607</ele>
        <time>2022-01-18T09:47:14Z</time>
      </trkpt>
      <trkpt lat="48.11472" lon="6.62201">
        <ele>607</ele>
        <time>2022-01-18T09:47:19Z</time>
      </trkpt>
      <trkpt lat="48.11434" lon="6.62219">
        <ele>607</ele>
        <time>2022-01-18T09:47:29Z</time>
      </trkpt>
      <trkpt lat="48.11414" lon="6.62222">
        <ele>607</ele>
        <time>2022-01-18T09:47:33Z</time>
      </trkpt>
      <trkpt lat="48.11415" lon="6.62194">
        <ele>605</ele>
        <time>2022-01-18T09:47:38Z</time>
      </trkpt>
      <trkpt lat="48.11426" lon="6.62148">
        <ele>602</ele>
        <time>2022-01-18T09:47:45Z</time>
      </trkpt>
      <trkpt lat="48.11445" lon="6.62013">
        <ele>591</ele>
        <time>2022-01-18T09:48:07Z</time>
      </trkpt>
      <trkpt lat="48.11488" lon="6.61949">
        <ele>586</ele>
        <time>2022-01-18T09:48:21Z</time>
      </trkpt>
      <trkpt lat="48.11502" lon="6.61919">
        <ele>582</ele>
        <time>2022-01-18T09:48:27Z</time>
      </trkpt>
      <trkpt lat="48.115" lon="6.61875">
        <ele>574</ele>
        <time>2022-01-18T09:48:33Z</time>
      </trkpt>
      <trkpt lat="48.11491" lon="6.61878">
        <ele>576</ele>
        <time>2022-01-18T09:48:36Z</time>
      </trkpt>
      <trkpt lat="48.11476" lon="6.61831">
        <ele>573</ele>
        <time>2022-01-18T09:48:44Z</time>
      </trkpt>
      <trkpt lat="48.11455" lon="6.61822">
        <ele>579</ele>
        <time>2022-01-18T09:48:49Z</time>
      </trkpt>
      <trkpt lat="48.11428" lon="6.61822">
        <ele>588</ele>
        <time>2022-01-18T09:48:55Z</time>
      </trkpt>
      <trkpt lat="48.11371" lon="6.61807">
        <ele>600</ele>
        <time>2022-01-18T09:49:09Z</time>
      </trkpt>
      <trkpt lat="48.11337" lon="6.61792">
        <ele>606</ele>
        <time>2022-01-18T09:49:17Z</time>
      </trkpt>
      <trkpt lat="48.11269" lon="6.61773">
        <ele>608</ele>
        <time>2022-01-18T09:49:33Z</time>
      </trkpt>
      <trkpt lat="48.11183" lon="6.6176">
        <ele>606</ele>
        <time>2022-01-18T09:49:53Z</time>
      </trkpt>
      <trkpt lat="48.11128" lon="6.6174">
        <ele>607</ele>
        <time>2022-01-18T09:50:06Z</time>
      </trkpt>
      <trkpt lat="48.11081" lon="6.61728">
        <ele>609</ele>
        <time>2022-01-18T09:50:18Z</time>
      </trkpt>
      <trkpt lat="48.11022" lon="6.61726">
        <ele>612</ele>
        <time>2022-01-18T09:50:31Z</time>
      </trkpt>
      <trkpt lat="48.11034" lon="6.61777">
        <ele>613</ele>
        <time>2022-01-18T09:50:40Z</time>
      </trkpt>
      <trkpt lat="48.11038" lon="6.61849">
        <ele>616</ele>
        <time>2022-01-18T09:50:51Z</time>
      </trkpt>
      <trkpt lat="48.11061" lon="6.61947">
        <ele>621</ele>
        <time>2022-01-18T09:51:07Z</time>
      </trkpt>
      <trkpt lat="48.1106" lon="6.62007">
        <ele>623</ele>
        <time>2022-01-18T09:51:17Z</time>
      </trkpt>
      <trkpt lat="48.11054" lon="6.62048">
        <ele>624</ele>
        <time>2022-01-18T09:51:23Z</time>
      </trkpt>
      <trkpt lat="48.11062" lon="6.62105">
        <ele>626</ele>
        <time>2022-01-18T09:51:32Z</time>
      </trkpt>
      <trkpt lat="48.1106" lon="6.62125">
        <ele>626</ele>
        <time>2022-01-18T09:51:35Z</time>
      </trkpt>
      <trkpt lat="48.11068" lon="6.62161">
        <ele>626</ele>
        <time>2022-01-18T09:51:41Z</time>
      </trkpt>
      <trkpt lat="48.11081" lon="6.62193">
        <ele>627</ele>
        <time>2022-01-18T09:51:47Z</time>
      </trkpt>
      <trkpt lat="48.11098" lon="6.62218">
        <ele>628</ele>
        <time>2022-01-18T09:51:53Z</time>
      </trkpt>
      <trkpt lat="48.11103" lon="6.62256">
        <ele>629</ele>
        <time>2022-01-18T09:51:59Z</time>
      </trkpt>
      <trkpt lat="48.11099" lon="6.62362">
        <ele>633</ele>
        <time>2022-01-18T09:52:15Z</time>
      </trkpt>
      <trkpt lat="48.11103" lon="6.62399">
        <ele>633</ele>
        <time>2022-01-18T09:52:21Z</time>
      </trkpt>
      <trkpt lat="48.11072" lon="6.62462">
        <ele>637</ele>
        <time>2022-01-18T09:52:33Z</time>
      </trkpt>
      <trkpt lat="48.11063" lon="6.62491">
        <ele>639</ele>
        <time>2022-01-18T09:52:38Z</time>
      </trkpt>
      <trkpt lat="48.11043" lon="6.62523">
        <ele>642</ele>
        <time>2022-01-18T09:52:45Z</time>
      </trkpt>
      <trkpt lat="48.11035" lon="6.62576">
        <ele>646</ele>
        <time>2022-01-18T09:52:54Z</time>
      </trkpt>
      <trkpt lat="48.1103" lon="6.62682">
        <ele>653</ele>
        <time>2022-01-18T09:53:10Z</time>
      </trkpt>
      <trkpt lat="48.10992" lon="6.62795">
        <ele>661</ele>
        <time>2022-01-18T09:53:30Z</time>
      </trkpt>
      <trkpt lat="48.10981" lon="6.62887">
        <ele>666</ele>
        <time>2022-01-18T09:53:45Z</time>
      </trkpt>
      <trkpt lat="48.10929" lon="6.63015">
        <ele>668</ele>
        <time>2022-01-18T09:54:08Z</time>
      </trkpt>
      <trkpt lat="48.10912" lon="6.63123">
        <ele>674</ele>
        <time>2022-01-18T09:54:25Z</time>
      </trkpt>
      <trkpt lat="48.10924" lon="6.63211">
        <ele>675</ele>
        <time>2022-01-18T09:54:39Z</time>
      </trkpt>
      <trkpt lat="48.10989" lon="6.63331">
        <ele>678</ele>
        <time>2022-01-18T09:55:03Z</time>
      </trkpt>
      <trkpt lat="48.11036" lon="6.63377">
        <ele>679</ele>
        <time>2022-01-18T09:55:16Z</time>
      </trkpt>
      <trkpt lat="48.11012" lon="6.63525">
        <ele>675</ele>
        <time>2022-01-18T09:55:40Z</time>
      </trkpt>
      <trkpt lat="48.10965" lon="6.63621">
        <ele>669</ele>
        <time>2022-01-18T09:55:59Z</time>
      </trkpt>
      <trkpt lat="48.10981" lon="6.63979">
        <ele>667</ele>
        <time>2022-01-18T09:56:55Z</time>
      </trkpt>
      <trkpt lat="48.10948" lon="6.6412">
        <ele>664</ele>
        <time>2022-01-18T09:57:18Z</time>
      </trkpt>
      <trkpt lat="48.10878" lon="6.64263">
        <ele>665</ele>
        <time>2022-01-18T09:57:46Z</time>
      </trkpt>
      <trkpt lat="48.10798" lon="6.6435">
        <ele>668</ele>
        <time>2022-01-18T09:58:09Z</time>
      </trkpt>
      <trkpt lat="48.10827" lon="6.6452">
        <ele>675</ele>
        <time>2022-01-18T09:58:36Z</time>
      </trkpt>
      <trkpt lat="48.10769" lon="6.64583">
        <ele>672</ele>
        <time>2022-01-18T09:58:53Z</time>
      </trkpt>
      <trkpt lat="48.1072" lon="6.64655">
        <ele>672</ele>
        <time>2022-01-18T09:59:09Z</time>
      </trkpt>
      <trkpt lat="48.10702" lon="6.64742">
        <ele>676</ele>
        <time>2022-01-18T09:59:23Z</time>
      </trkpt>
      <trkpt lat="48.10671" lon="6.64812">
        <ele>684</ele>
        <time>2022-01-18T09:59:36Z</time>
      </trkpt>
      <trkpt lat="48.10647" lon="6.64813">
        <ele>688</ele>
        <time>2022-01-18T09:59:42Z</time>
      </trkpt>
      <trkpt lat="48.10621" lon="6.64807">
        <ele>691</ele>
        <time>2022-01-18T09:59:48Z</time>
      </trkpt>
      <trkpt lat="48.10562" lon="6.64858">
        <ele>709</ele>
        <time>2022-01-18T10:00:04Z</time>
      </trkpt>
      <trkpt lat="48.10574" lon="6.64873">
        <ele>709</ele>
        <time>2022-01-18T10:00:07Z</time>
      </trkpt>
      <trkpt lat="48.10593" lon="6.6489">
        <ele>708</ele>
        <time>2022-01-18T10:00:13Z</time>
      </trkpt>
      <trkpt lat="48.1062" lon="6.64923">
        <ele>707</ele>
        <time>2022-01-18T10:00:21Z</time>
      </trkpt>
      <trkpt lat="48.10631" lon="6.64939">
        <ele>707</ele>
        <time>2022-01-18T10:00:24Z</time>
      </trkpt>
      <trkpt lat="48.10636" lon="6.64961">
        <ele>709</ele>
        <time>2022-01-18T10:00:28Z</time>
      </trkpt>
      <trkpt lat="48.10634" lon="6.64991">
        <ele>713</ele>
        <time>2022-01-18T10:00:33Z</time>
      </trkpt>
      <trkpt lat="48.10636" lon="6.65016">
        <ele>715</ele>
        <time>2022-01-18T10:00:37Z</time>
      </trkpt>
      <trkpt lat="48.10634" lon="6.6513">
        <ele>728</ele>
        <time>2022-01-18T10:00:54Z</time>
      </trkpt>
      <trkpt lat="48.10628" lon="6.65165">
        <ele>733</ele>
        <time>2022-01-18T10:01:00Z</time>
      </trkpt>
      <trkpt lat="48.10627" lon="6.65207">
        <ele>732</ele>
        <time>2022-01-18T10:01:07Z</time>
      </trkpt>
      <trkpt lat="48.10668" lon="6.65247">
        <ele>733</ele>
        <time>2022-01-18T10:01:18Z</time>
      </trkpt>
      <trkpt lat="48.10745" lon="6.65332">
        <ele>726</ele>
        <time>2022-01-18T10:01:40Z</time>
      </trkpt>
      <trkpt lat="48.10761" lon="6.65356">
        <ele>725</ele>
        <time>2022-01-18T10:01:46Z</time>
      </trkpt>
      <trkpt lat="48.10762" lon="6.65371">
        <ele>724</ele>
        <time>2022-01-18T10:01:48Z</time>
      </trkpt>
      <trkpt lat="48.10775" lon="6.65413">
        <ele>723</ele>
        <time>2022-01-18T10:01:55Z</time>
      </trkpt>
      <trkpt lat="48.10798" lon="6.65458">
        <ele>718</ele>
        <time>2022-01-18T10:02:04Z</time>
      </trkpt>
      <trkpt lat="48.10823" lon="6.65495">
        <ele>717</ele>
        <time>2022-01-18T10:02:12Z</time>
      </trkpt>
      <trkpt lat="48.10836" lon="6.6552">
        <ele>713</ele>
        <time>2022-01-18T10:02:17Z</time>
      </trkpt>
      <trkpt lat="48.10831" lon="6.6553">
        <ele>712</ele>
        <time>2022-01-18T10:02:19Z</time>
      </trkpt>
      <trkpt lat="48.10703" lon="6.65513">
        <ele>699</ele>
        <time>2022-01-18T10:02:49Z</time>
      </trkpt>
      <trkpt lat="48.10662" lon="6.65494">
        <ele>695</ele>
        <time>2022-01-18T10:02:59Z</time>
      </trkpt>
      <trkpt lat="48.10648" lon="6.65474">
        <ele>697</ele>
        <time>2022-01-18T10:03:04Z</time>
      </trkpt>
      <trkpt lat="48.10618" lon="6.65452">
        <ele>696</ele>
        <time>2022-01-18T10:03:11Z</time>
      </trkpt>
      <trkpt lat="48.10611" lon="6.65443">
        <ele>696</ele>
        <time>2022-01-18T10:03:14Z</time>
      </trkpt>
      <trkpt lat="48.10561" lon="6.65409">
        <ele>693</ele>
        <time>2022-01-18T10:03:26Z</time>
      </trkpt>
      <trkpt lat="48.10527" lon="6.65396">
        <ele>690</ele>
        <time>2022-01-18T10:03:35Z</time>
      </trkpt>
      <trkpt lat="48.105" lon="6.65378">
        <ele>690</ele>
        <time>2022-01-18T10:03:42Z</time>
      </trkpt>
      <trkpt lat="48.10374" lon="6.65358">
        <ele>703</ele>
        <time>2022-01-18T10:04:11Z</time>
      </trkpt>
      <trkpt lat="48.10361" lon="6.65349">
        <ele>705</ele>
        <time>2022-01-18T10:04:15Z</time>
      </trkpt>
      <trkpt lat="48.10323" lon="6.65332">
        <ele>709</ele>
        <time>2022-01-18T10:04:24Z</time>
      </trkpt>
      <trkpt lat="48.10303" lon="6.65326">
        <ele>710</ele>
        <time>2022-01-18T10:04:29Z</time>
      </trkpt>
      <trkpt lat="48.10291" lon="6.65365">
        <ele>704</ele>
        <time>2022-01-18T10:04:35Z</time>
      </trkpt>
      <trkpt lat="48.10282" lon="6.65331">
        <ele>710</ele>
        <time>2022-01-18T10:04:41Z</time>
      </trkpt>
      <trkpt lat="48.10219" lon="6.65361">
        <ele>710</ele>
        <time>2022-01-18T10:04:56Z</time>
      </trkpt>
      <trkpt lat="48.10174" lon="6.65416">
        <ele>704</ele>
        <time>2022-01-18T10:05:10Z</time>
      </trkpt>
      <trkpt lat="48.1009" lon="6.65443">
        <ele>714</ele>
        <time>2022-01-18T10:05:30Z</time>
      </trkpt>
      <trkpt lat="48.10073" lon="6.65474">
        <ele>714</ele>
        <time>2022-01-18T10:05:36Z</time>
      </trkpt>
      <trkpt lat="48.10074" lon="6.65519">
        <ele>710</ele>
        <time>2022-01-18T10:05:43Z</time>
      </trkpt>
      <trkpt lat="48.10084" lon="6.65528">
        <ele>707</ele>
        <time>2022-01-18T10:05:46Z</time>
      </trkpt>
      <trkpt lat="48.1008" lon="6.65552">
        <ele>707</ele>
        <time>2022-01-18T10:05:50Z</time>
      </trkpt>
      <trkpt lat="48.10088" lon="6.65581">
        <ele>703</ele>
        <time>2022-01-18T10:05:55Z</time>
      </trkpt>
      <trkpt lat="48.101" lon="6.65657">
        <ele>698</ele>
        <time>2022-01-18T10:06:07Z</time>
      </trkpt>
      <trkpt lat="48.10102" lon="6.6571">
        <ele>699</ele>
        <time>2022-01-18T10:06:15Z</time>
      </trkpt>
      <trkpt lat="48.1012" lon="6.65723">
        <ele>695</ele>
        <time>2022-01-18T10:06:20Z</time>
      </trkpt>
      <trkpt lat="48.10137" lon="6.6573">
        <ele>692</ele>
        <time>2022-01-18T10:06:24Z</time>
      </trkpt>
      <trkpt lat="48.10154" lon="6.65725">
        <ele>687</ele>
        <time>2022-01-18T10:06:28Z</time>
      </trkpt>
      <trkpt lat="48.10179" lon="6.65733">
        <ele>684</ele>
        <time>2022-01-18T10:06:34Z</time>
      </trkpt>
      <trkpt lat="48.10196" lon="6.65741">
        <ele>682</ele>
        <time>2022-01-18T10:06:38Z</time>
      </trkpt>
      <trkpt lat="48.10218" lon="6.65759">
        <ele>681</ele>
        <time>2022-01-18T10:06:44Z</time>
      </trkpt>
      <trkpt lat="48.10247" lon="6.65773">
        <ele>680</ele>
        <time>2022-01-18T10:06:51Z</time>
      </trkpt>
      <trkpt lat="48.10359" lon="6.65817">
        <ele>674</ele>
        <time>2022-01-18T10:07:18Z</time>
      </trkpt>
      <trkpt lat="48.10381" lon="6.65837">
        <ele>673</ele>
        <time>2022-01-18T10:07:24Z</time>
      </trkpt>
      <trkpt lat="48.10399" lon="6.65868">
        <ele>674</ele>
        <time>2022-01-18T10:07:31Z</time>
      </trkpt>
      <trkpt lat="48.10426" lon="6.65942">
        <ele>678</ele>
        <time>2022-01-18T10:07:44Z</time>
      </trkpt>
      <trkpt lat="48.10431" lon="6.65999">
        <ele>682</ele>
        <time>2022-01-18T10:07:53Z</time>
      </trkpt>
      <trkpt lat="48.10429" lon="6.66107">
        <ele>689</ele>
        <time>2022-01-18T10:08:10Z</time>
      </trkpt>
      <trkpt lat="48.10423" lon="6.6615">
        <ele>691</ele>
        <time>2022-01-18T10:08:16Z</time>
      </trkpt>
      <trkpt lat="48.10414" lon="6.66188">
        <ele>691</ele>
        <time>2022-01-18T10:08:23Z</time>
      </trkpt>
      <trkpt lat="48.10399" lon="6.66232">
        <ele>688</ele>
        <time>2022-01-18T10:08:30Z</time>
      </trkpt>
      <trkpt lat="48.10367" lon="6.66278">
        <ele>689</ele>
        <time>2022-01-18T10:08:41Z</time>
      </trkpt>
      <trkpt lat="48.10295" lon="6.66391">
        <ele>682</ele>
        <time>2022-01-18T10:09:05Z</time>
      </trkpt>
      <trkpt lat="48.10273" lon="6.66435">
        <ele>680</ele>
        <time>2022-01-18T10:09:14Z</time>
      </trkpt>
      <trkpt lat="48.10282" lon="6.66469">
        <ele>679</ele>
        <time>2022-01-18T10:09:19Z</time>
      </trkpt>
      <trkpt lat="48.10326" lon="6.6653">
        <ele>677</ele>
        <time>2022-01-18T10:09:33Z</time>
      </trkpt>
      <trkpt lat="48.10342" lon="6.66556">
        <ele>678</ele>
        <time>2022-01-18T10:09:39Z</time>
      </trkpt>
      <trkpt lat="48.10379" lon="6.6659">
        <ele>679</ele>
        <time>2022-01-18T10:09:49Z</time>
      </trkpt>
      <trkpt lat="48.10411" lon="6.66606">
        <ele>677</ele>
        <time>2022-01-18T10:09:57Z</time>
      </trkpt>
      <trkpt lat="48.10434" lon="6.66625">
        <ele>674</ele>
        <time>2022-01-18T10:10:03Z</time>
      </trkpt>
      <trkpt lat="48.10429" lon="6.66681">
        <ele>671</ele>
        <time>2022-01-18T10:10:12Z</time>
      </trkpt>
      <trkpt lat="48.10411" lon="6.6671">
        <ele>669</ele>
        <time>2022-01-18T10:10:18Z</time>
      </trkpt>
      <trkpt lat="48.10396" lon="6.66717">
        <ele>668</ele>
        <time>2022-01-18T10:10:22Z</time>
      </trkpt>
      <trkpt lat="48.10387" lon="6.66742">
        <ele>665</ele>
        <time>2022-01-18T10:10:26Z</time>
      </trkpt>
      <trkpt lat="48.10359" lon="6.66755">
        <ele>664</ele>
        <time>2022-01-18T10:10:33Z</time>
      </trkpt>
      <trkpt lat="48.10349" lon="6.66778">
        <ele>662</ele>
        <time>2022-01-18T10:10:37Z</time>
      </trkpt>
      <trkpt lat="48.10348" lon="6.668">
        <ele>659</ele>
        <time>2022-01-18T10:10:41Z</time>
      </trkpt>
      <trkpt lat="48.10377" lon="6.66853">
        <ele>653</ele>
        <time>2022-01-18T10:10:51Z</time>
      </trkpt>
      <trkpt lat="48.1039" lon="6.66956">
        <ele>659</ele>
        <time>2022-01-18T10:11:08Z</time>
      </trkpt>
      <trkpt lat="48.10419" lon="6.67009">
        <ele>663</ele>
        <time>2022-01-18T10:11:18Z</time>
      </trkpt>
      <trkpt lat="48.10464" lon="6.67053">
        <ele>671</ele>
        <time>2022-01-18T10:11:31Z</time>
      </trkpt>
      <trkpt lat="48.10468" lon="6.67073">
        <ele>673</ele>
        <time>2022-01-18T10:11:34Z</time>
      </trkpt>
      <trkpt lat="48.10459" lon="6.67096">
        <ele>673</ele>
        <time>2022-01-18T10:11:38Z</time>
      </trkpt>
      <trkpt lat="48.10434" lon="6.67119">
        <ele>672</ele>
        <time>2022-01-18T10:11:45Z</time>
      </trkpt>
      <trkpt lat="48.10423" lon="6.67137">
        <ele>672</ele>
        <time>2022-01-18T10:11:49Z</time>
      </trkpt>
      <trkpt lat="48.10415" lon="6.67183">
        <ele>672</ele>
        <time>2022-01-18T10:11:56Z</time>
      </trkpt>
      <trkpt lat="48.10411" lon="6.67236">
        <ele>669</ele>
        <time>2022-01-18T10:12:05Z</time>
      </trkpt>
      <trkpt lat="48.10388" lon="6.67287">
        <ele>666</ele>
        <time>2022-01-18T10:12:14Z</time>
      </trkpt>
      <trkpt lat="48.10384" lon="6.67321">
        <ele>664</ele>
        <time>2022-01-18T10:12:20Z</time>
      </trkpt>
      <trkpt lat="48.104" lon="6.67338">
        <ele>662</ele>
        <time>2022-01-18T10:12:24Z</time>
      </trkpt>
      <trkpt lat="48.10416" lon="6.67339">
        <ele>662</ele>
        <time>2022-01-18T10:12:28Z</time>
      </trkpt>
      <trkpt lat="48.10434" lon="6.67351">
        <ele>658</ele>
        <time>2022-01-18T10:12:33Z</time>
      </trkpt>
      <trkpt lat="48.10454" lon="6.67359">
        <ele>656</ele>
        <time>2022-01-18T10:12:38Z</time>
      </trkpt>
      <trkpt lat="48.10482" lon="6.67378">
        <ele>649</ele>
        <time>2022-01-18T10:12:45Z</time>
      </trkpt>
      <trkpt lat="48.10504" lon="6.67377">
        <ele>649</ele>
        <time>2022-01-18T10:12:50Z</time>
      </trkpt>
      <trkpt lat="48.10555" lon="6.67389">
        <ele>640</ele>
        <time>2022-01-18T10:13:02Z</time>
      </trkpt>
      <trkpt lat="48.10579" lon="6.67374">
        <ele>642</ele>
        <time>2022-01-18T10:13:08Z</time>
      </trkpt>
      <trkpt lat="48.10603" lon="6.67375">
        <ele>641</ele>
        <time>2022-01-18T10:13:14Z</time>
      </trkpt>
      <trkpt lat="48.10634" lon="6.67393">
        <ele>636</ele>
        <time>2022-01-18T10:13:21Z</time>
      </trkpt>
      <trkpt lat="48.1066" lon="6.67396">
        <ele>636</ele>
        <time>2022-01-18T10:13:27Z</time>
      </trkpt>
      <trkpt lat="48.10693" lon="6.67409">
        <ele>634</ele>
        <time>2022-01-18T10:13:35Z</time>
      </trkpt>
      <trkpt lat="48.10713" lon="6.67423">
        <ele>631</ele>
        <time>2022-01-18T10:13:41Z</time>
      </trkpt>
      <trkpt lat="48.10739" lon="6.67449">
        <ele>625</ele>
        <time>2022-01-18T10:13:48Z</time>
      </trkpt>
      <trkpt lat="48.10765" lon="6.67489">
        <ele>617</ele>
        <time>2022-01-18T10:13:57Z</time>
      </trkpt>
      <trkpt lat="48.10815" lon="6.67573">
        <ele>596</ele>
        <time>2022-01-18T10:14:14Z</time>
      </trkpt>
      <trkpt lat="48.10837" lon="6.67617">
        <ele>585</ele>
        <time>2022-01-18T10:14:23Z</time>
      </trkpt>
      <trkpt lat="48.10843" lon="6.67637">
        <ele>579</ele>
        <time>2022-01-18T10:14:26Z</time>
      </trkpt>
      <trkpt lat="48.10854" lon="6.67651">
        <ele>574</ele>
        <time>2022-01-18T10:14:29Z</time>
      </trkpt>
      <trkpt lat="48.10876" lon="6.67672">
        <ele>566</ele>
        <time>2022-01-18T10:14:36Z</time>
      </trkpt>
      <trkpt lat="48.10892" lon="6.67669">
        <ele>567</ele>
        <time>2022-01-18T10:14:39Z</time>
      </trkpt>
      <trkpt lat="48.10927" lon="6.67651">
        <ele>566</ele>
        <time>2022-01-18T10:14:48Z</time>
      </trkpt>
      <trkpt lat="48.10926" lon="6.67676">
        <ele>561</ele>
        <time>2022-01-18T10:14:52Z</time>
      </trkpt>
      <trkpt lat="48.1091" lon="6.67705">
        <ele>557</ele>
        <time>2022-01-18T10:14:58Z</time>
      </trkpt>
      <trkpt lat="48.10908" lon="6.67729">
        <ele>550</ele>
        <time>2022-01-18T10:15:02Z</time>
      </trkpt>
      <trkpt lat="48.10926" lon="6.6778">
        <ele>537</ele>
        <time>2022-01-18T10:15:11Z</time>
      </trkpt>
      <trkpt lat="48.11028" lon="6.67782">
        <ele>526</ele>
        <time>2022-01-18T10:15:34Z</time>
      </trkpt>
      <trkpt lat="48.11087" lon="6.67763">
        <ele>523</ele>
        <time>2022-01-18T10:15:48Z</time>
      </trkpt>
      <trkpt lat="48.11109" lon="6.67778">
        <ele>520</ele>
        <time>2022-01-18T10:15:54Z</time>
      </trkpt>
      <trkpt lat="48.1113" lon="6.67857">
        <ele>518</ele>
        <time>2022-01-18T10:16:07Z</time>
      </trkpt>
      <trkpt lat="48.1112" lon="6.67911">
        <ele>517</ele>
        <time>2022-01-18T10:16:16Z</time>
      </trkpt>
      <trkpt lat="48.11073" lon="6.67958">
        <ele>517</ele>
        <time>2022-01-18T10:16:29Z</time>
      </trkpt>
      <trkpt lat="48.11071" lon="6.67997">
        <ele>514</ele>
        <time>2022-01-18T10:16:35Z</time>
      </trkpt>
      <trkpt lat="48.11062" lon="6.68026">
        <ele>512</ele>
        <time>2022-01-18T10:16:40Z</time>
      </trkpt>
      <trkpt lat="48.11048" lon="6.68046">
        <ele>510</ele>
        <time>2022-01-18T10:16:45Z</time>
      </trkpt>
      <trkpt lat="48.11118" lon="6.6806">
        <ele>504</ele>
        <time>2022-01-18T10:17:01Z</time>
      </trkpt>
      <trkpt lat="48.11149" lon="6.68049">
        <ele>501</ele>
        <time>2022-01-18T10:17:09Z</time>
      </trkpt>
      <trkpt lat="48.11202" lon="6.6799">
        <ele>497</ele>
        <time>2022-01-18T10:17:24Z</time>
      </trkpt>
      <trkpt lat="48.11252" lon="6.67945">
        <ele>493</ele>
        <time>2022-01-18T10:17:38Z</time>
      </trkpt>
      <trkpt lat="48.11293" lon="6.67942">
        <ele>486</ele>
        <time>2022-01-18T10:17:47Z</time>
      </trkpt>
      <trkpt lat="48.11344" lon="6.6788">
        <ele>479</ele>
        <time>2022-01-18T10:18:03Z</time>
      </trkpt>
      <trkpt lat="48.11404" lon="6.67859">
        <ele>476</ele>
        <time>2022-01-18T10:18:17Z</time>
      </trkpt>
      <trkpt lat="48.1145" lon="6.67835">
        <ele>475</ele>
        <time>2022-01-18T10:18:29Z</time>
      </trkpt>
      <trkpt lat="48.11476" lon="6.67826">
        <ele>476</ele>
        <time>2022-01-18T10:18:35Z</time>
      </trkpt>
      <trkpt lat="48.1149" lon="6.67829">
        <ele>477</ele>
        <time>2022-01-18T10:18:38Z</time>
      </trkpt>
      <trkpt lat="48.11501" lon="6.67819">
        <ele>477</ele>
        <time>2022-01-18T10:18:41Z</time>
      </trkpt>
      <trkpt lat="48.11516" lon="6.67811">
        <ele>476</ele>
        <time>2022-01-18T10:18:45Z</time>
      </trkpt>
      <trkpt lat="48.11525" lon="6.67791">
        <ele>476</ele>
        <time>2022-01-18T10:18:49Z</time>
      </trkpt>
      <trkpt lat="48.11545" lon="6.67757">
        <ele>474</ele>
        <time>2022-01-18T10:18:56Z</time>
      </trkpt>
      <trkpt lat="48.11568" lon="6.67742">
        <ele>473</ele>
        <time>2022-01-18T10:19:01Z</time>
      </trkpt>
      <trkpt lat="48.1159" lon="6.67735">
        <ele>471</ele>
        <time>2022-01-18T10:19:07Z</time>
      </trkpt>
      <trkpt lat="48.11619" lon="6.67722">
        <ele>468</ele>
        <time>2022-01-18T10:19:14Z</time>
      </trkpt>
      <trkpt lat="48.11675" lon="6.67765">
        <ele>463</ele>
        <time>2022-01-18T10:19:28Z</time>
      </trkpt>
      <trkpt lat="48.11695" lon="6.67777">
        <ele>463</ele>
        <time>2022-01-18T10:19:34Z</time>
      </trkpt>
      <trkpt lat="48.11712" lon="6.67795">
        <ele>464</ele>
        <time>2022-01-18T10:19:38Z</time>
      </trkpt>
      <trkpt lat="48.11736" lon="6.67809">
        <ele>464</ele>
        <time>2022-01-18T10:19:44Z</time>
      </trkpt>
      <trkpt lat="48.11762" lon="6.67835">
        <ele>464</ele>
        <time>2022-01-18T10:19:52Z</time>
      </trkpt>
      <trkpt lat="48.11798" lon="6.67886">
        <ele>463</ele>
        <time>2022-01-18T10:20:03Z</time>
      </trkpt>
      <trkpt lat="48.11824" lon="6.67916">
        <ele>462</ele>
        <time>2022-01-18T10:20:11Z</time>
      </trkpt>
      <trkpt lat="48.11862" lon="6.67947">
        <ele>463</ele>
        <time>2022-01-18T10:20:21Z</time>
      </trkpt>
      <trkpt lat="48.11906" lon="6.67939">
        <ele>460</ele>
        <time>2022-01-18T10:20:31Z</time>
      </trkpt>
      <trkpt lat="48.11931" lon="6.67925">
        <ele>458</ele>
        <time>2022-01-18T10:20:38Z</time>
      </trkpt>
      <trkpt lat="48.1199" lon="6.67901">
        <ele>455</ele>
        <time>2022-01-18T10:20:52Z</time>
      </trkpt>
      <trkpt lat="48.11972" lon="6.67852">
        <ele>455</ele>
        <time>2022-01-18T10:21:01Z</time>
      </trkpt>
      <trkpt lat="48.11967" lon="6.67827">
        <ele>455</ele>
        <time>2022-01-18T10:21:05Z</time>
      </trkpt>
      <trkpt lat="48.11979" lon="6.67794">
        <ele>454</ele>
        <time>2022-01-18T10:21:11Z</time>
      </trkpt>
      <trkpt lat="48.11998" lon="6.67769">
        <ele>453</ele>
        <time>2022-01-18T10:21:16Z</time>
      </trkpt>
      <trkpt lat="48.12035" lon="6.67667">
        <ele>457</ele>
        <time>2022-01-18T10:21:35Z</time>
      </trkpt>
      <trkpt lat="48.12041" lon="6.6762">
        <ele>460</ele>
        <time>2022-01-18T10:21:42Z</time>
      </trkpt>
      <trkpt lat="48.1205" lon="6.67577">
        <ele>462</ele>
        <time>2022-01-18T10:21:49Z</time>
      </trkpt>
      <trkpt lat="48.1205" lon="6.67543">
        <ele>465</ele>
        <time>2022-01-18T10:21:54Z</time>
      </trkpt>
      <trkpt lat="48.12076" lon="6.67429">
        <ele>468</ele>
        <time>2022-01-18T10:22:13Z</time>
      </trkpt>
      <trkpt lat="48.12085" lon="6.67399">
        <ele>468</ele>
        <time>2022-01-18T10:22:18Z</time>
      </trkpt>
      <trkpt lat="48.12089" lon="6.67371">
        <ele>470</ele>
        <time>2022-01-18T10:22:23Z</time>
      </trkpt>
      <trkpt lat="48.12101" lon="6.67333">
        <ele>472</ele>
        <time>2022-01-18T10:22:29Z</time>
      </trkpt>
      <trkpt lat="48.1215" lon="6.67287">
        <ele>475</ele>
        <time>2022-01-18T10:22:43Z</time>
      </trkpt>
      <trkpt lat="48.12169" lon="6.67266">
        <ele>477</ele>
        <time>2022-01-18T10:22:48Z</time>
      </trkpt>
      <trkpt lat="48.12193" lon="6.6725">
        <ele>478</ele>
        <time>2022-01-18T10:22:54Z</time>
      </trkpt>
      <trkpt lat="48.12224" lon="6.67251">
        <ele>478</ele>
        <time>2022-01-18T10:23:02Z</time>
      </trkpt>
      <trkpt lat="48.12239" lon="6.67234">
        <ele>480</ele>
        <time>2022-01-18T10:23:06Z</time>
      </trkpt>
      <trkpt lat="48.1228" lon="6.67253">
        <ele>478</ele>
        <time>2022-01-18T10:23:16Z</time>
      </trkpt>
      <trkpt lat="48.12308" lon="6.67262">
        <ele>477</ele>
        <time>2022-01-18T10:23:23Z</time>
      </trkpt>
      <trkpt lat="48.12371" lon="6.67265">
        <ele>476</ele>
        <time>2022-01-18T10:23:37Z</time>
      </trkpt>
      <trkpt lat="48.12424" lon="6.67278">
        <ele>472</ele>
        <time>2022-01-18T10:23:50Z</time>
      </trkpt>
      <trkpt lat="48.1247" lon="6.67327">
        <ele>467</ele>
        <time>2022-01-18T10:24:03Z</time>
      </trkpt>
      <trkpt lat="48.12499" lon="6.6738">
        <ele>463</ele>
        <time>2022-01-18T10:24:14Z</time>
      </trkpt>
      <trkpt lat="48.12527" lon="6.67419">
        <ele>459</ele>
        <time>2022-01-18T10:24:23Z</time>
      </trkpt>
      <trkpt lat="48.12577" lon="6.67448">
        <ele>455</ele>
        <time>2022-01-18T10:24:35Z</time>
      </trkpt>
      <trkpt lat="48.12629" lon="6.67455">
        <ele>451</ele>
        <time>2022-01-18T10:24:48Z</time>
      </trkpt>
      <trkpt lat="48.12653" lon="6.67462">
        <ele>449</ele>
        <time>2022-01-18T10:24:53Z</time>
      </trkpt>
      <trkpt lat="48.12697" lon="6.67448">
        <ele>448</ele>
        <time>2022-01-18T10:25:04Z</time>
      </trkpt>
      <trkpt lat="48.12711" lon="6.67449">
        <ele>447</ele>
        <time>2022-01-18T10:25:07Z</time>
      </trkpt>
      <trkpt lat="48.12722" lon="6.67466">
        <ele>446</ele>
        <time>2022-01-18T10:25:11Z</time>
      </trkpt>
      <trkpt lat="48.12737" lon="6.67501">
        <ele>444</ele>
        <time>2022-01-18T10:25:17Z</time>
      </trkpt>
      <trkpt lat="48.12775" lon="6.67548">
        <ele>441</ele>
        <time>2022-01-18T10:25:29Z</time>
      </trkpt>
      <trkpt lat="48.12865" lon="6.67526">
        <ele>441</ele>
        <time>2022-01-18T10:25:50Z</time>
      </trkpt>
      <trkpt lat="48.12908" lon="6.67534">
        <ele>440</ele>
        <time>2022-01-18T10:26:00Z</time>
      </trkpt>
      <trkpt lat="48.12926" lon="6.67541">
        <ele>440</ele>
        <time>2022-01-18T10:26:04Z</time>
      </trkpt>
      <trkpt lat="48.12943" lon="6.67541">
        <ele>440</ele>
        <time>2022-01-18T10:26:08Z</time>
      </trkpt>
      <trkpt lat="48.12959" lon="6.67529">
        <ele>441</ele>
        <time>2022-01-18T10:26:13Z</time>
      </trkpt>
      <trkpt lat="48.13028" lon="6.67536">
        <ele>441</ele>
        <time>2022-01-18T10:26:29Z</time>
      </trkpt>
      <trkpt lat="48.13022" lon="6.67486">
        <ele>444</ele>
        <time>2022-01-18T10:26:37Z</time>
      </trkpt>
      <trkpt lat="48.13019" lon="6.67423">
        <ele>446</ele>
        <time>2022-01-18T10:26:47Z</time>
      </trkpt>
      <trkpt lat="48.13014" lon="6.67389">
        <ele>448</ele>
        <time>2022-01-18T10:26:52Z</time>
      </trkpt>
      <trkpt lat="48.13001" lon="6.67336">
        <ele>452</ele>
        <time>2022-01-18T10:27:01Z</time>
      </trkpt>
      <trkpt lat="48.12978" lon="6.67308">
        <ele>456</ele>
        <time>2022-01-18T10:27:08Z</time>
      </trkpt>
      <trkpt lat="48.12945" lon="6.67276">
        <ele>463</ele>
        <time>2022-01-18T10:27:17Z</time>
      </trkpt>
      <trkpt lat="48.12942" lon="6.67269">
        <ele>464</ele>
        <time>2022-01-18T10:27:18Z</time>
      </trkpt>
      <trkpt lat="48.12908" lon="6.67247">
        <ele>471</ele>
        <time>2022-01-18T10:27:27Z</time>
      </trkpt>
      <trkpt lat="48.12903" lon="6.67239">
        <ele>473</ele>
        <time>2022-01-18T10:27:28Z</time>
      </trkpt>
      <trkpt lat="48.12888" lon="6.67227">
        <ele>477</ele>
        <time>2022-01-18T10:27:32Z</time>
      </trkpt>
      <trkpt lat="48.12873" lon="6.6722">
        <ele>479</ele>
        <time>2022-01-18T10:27:36Z</time>
      </trkpt>
      <trkpt lat="48.12872" lon="6.67213">
        <ele>481</ele>
        <time>2022-01-18T10:27:37Z</time>
      </trkpt>
      <trkpt lat="48.12863" lon="6.67206">
        <ele>483</ele>
        <time>2022-01-18T10:27:40Z</time>
      </trkpt>
      <trkpt lat="48.12831" lon="6.67166">
        <ele>495</ele>
        <time>2022-01-18T10:27:49Z</time>
      </trkpt>
      <trkpt lat="48.12812" lon="6.67152">
        <ele>494</ele>
        <time>2022-01-18T10:27:54Z</time>
      </trkpt>
      <trkpt lat="48.12795" lon="6.67132">
        <ele>495</ele>
        <time>2022-01-18T10:27:59Z</time>
      </trkpt>
      <trkpt lat="48.12787" lon="6.67068">
        <ele>505</ele>
        <time>2022-01-18T10:28:09Z</time>
      </trkpt>
      <trkpt lat="48.12782" lon="6.67054">
        <ele>507</ele>
        <time>2022-01-18T10:28:12Z</time>
      </trkpt>
      <trkpt lat="48.12768" lon="6.67035">
        <ele>507</ele>
        <time>2022-01-18T10:28:16Z</time>
      </trkpt>
      <trkpt lat="48.12757" lon="6.67027">
        <ele>506</ele>
        <time>2022-01-18T10:28:19Z</time>
      </trkpt>
      <trkpt lat="48.12752" lon="6.67014">
        <ele>507</ele>
        <time>2022-01-18T10:28:22Z</time>
      </trkpt>
      <trkpt lat="48.12754" lon="6.66996">
        <ele>511</ele>
        <time>2022-01-18T10:28:24Z</time>
      </trkpt>
      <trkpt lat="48.12745" lon="6.66961">
        <ele>517</ele>
        <time>2022-01-18T10:28:30Z</time>
      </trkpt>
      <trkpt lat="48.12733" lon="6.66941">
        <ele>519</ele>
        <time>2022-01-18T10:28:34Z</time>
      </trkpt>
      <trkpt lat="48.12723" lon="6.66934">
        <ele>519</ele>
        <time>2022-01-18T10:28:37Z</time>
      </trkpt>
      <trkpt lat="48.12702" lon="6.66891">
        <ele>521</ele>
        <time>2022-01-18T10:28:45Z</time>
      </trkpt>
      <trkpt lat="48.12693" lon="6.66867">
        <ele>522</ele>
        <time>2022-01-18T10:28:50Z</time>
      </trkpt>
      <trkpt lat="48.1269" lon="6.66843">
        <ele>525</ele>
        <time>2022-01-18T10:28:53Z</time>
      </trkpt>
      <trkpt lat="48.12678" lon="6.66813">
        <ele>527</ele>
        <time>2022-01-18T10:28:59Z</time>
      </trkpt>
      <trkpt lat="48.12678" lon="6.66794">
        <ele>530</ele>
        <time>2022-01-18T10:29:02Z</time>
      </trkpt>
      <trkpt lat="48.12626" lon="6.66726">
        <ele>533</ele>
        <time>2022-01-18T10:29:18Z</time>
      </trkpt>
      <trkpt lat="48.12601" lon="6.66702">
        <ele>532</ele>
        <time>2022-01-18T10:29:25Z</time>
      </trkpt>
      <trkpt lat="48.12571" lon="6.66661">
        <ele>535</ele>
        <time>2022-01-18T10:29:34Z</time>
      </trkpt>
      <trkpt lat="48.1257" lon="6.66649">
        <ele>536</ele>
        <time>2022-01-18T10:29:36Z</time>
      </trkpt>
      <trkpt lat="48.12575" lon="6.66635">
        <ele>538</ele>
        <time>2022-01-18T10:29:39Z</time>
      </trkpt>
      <trkpt lat="48.12585" lon="6.66622">
        <ele>540</ele>
        <time>2022-01-18T10:29:42Z</time>
      </trkpt>
      <trkpt lat="48.12593" lon="6.66602">
        <ele>543</ele>
        <time>2022-01-18T10:29:45Z</time>
      </trkpt>
      <trkpt lat="48.12601" lon="6.66579">
        <ele>546</ele>
        <time>2022-01-18T10:29:50Z</time>
      </trkpt>
      <trkpt lat="48.12603" lon="6.66566">
        <ele>547</ele>
        <time>2022-01-18T10:29:52Z</time>
      </trkpt>
      <trkpt lat="48.12603" lon="6.66546">
        <ele>549</ele>
        <time>2022-01-18T10:29:55Z</time>
      </trkpt>
      <trkpt lat="48.12591" lon="6.66514">
        <ele>549</ele>
        <time>2022-01-18T10:30:00Z</time>
      </trkpt>
      <trkpt lat="48.12589" lon="6.66491">
        <ele>550</ele>
        <time>2022-01-18T10:30:04Z</time>
      </trkpt>
      <trkpt lat="48.12574" lon="6.66446">
        <ele>547</ele>
        <time>2022-01-18T10:30:12Z</time>
      </trkpt>
      <trkpt lat="48.1257" lon="6.66424">
        <ele>546</ele>
        <time>2022-01-18T10:30:15Z</time>
      </trkpt>
      <trkpt lat="48.12572" lon="6.66399">
        <ele>545</ele>
        <time>2022-01-18T10:30:19Z</time>
      </trkpt>
      <trkpt lat="48.12576" lon="6.66379">
        <ele>546</ele>
        <time>2022-01-18T10:30:23Z</time>
      </trkpt>
      <trkpt lat="48.12584" lon="6.66355">
        <ele>547</ele>
        <time>2022-01-18T10:30:27Z</time>
      </trkpt>
      <trkpt lat="48.12591" lon="6.66342">
        <ele>547</ele>
        <time>2022-01-18T10:30:29Z</time>
      </trkpt>
      <trkpt lat="48.12598" lon="6.663">
        <ele>546</ele>
        <time>2022-01-18T10:30:36Z</time>
      </trkpt>
      <trkpt lat="48.12594" lon="6.66281">
        <ele>544</ele>
        <time>2022-01-18T10:30:39Z</time>
      </trkpt>
      <trkpt lat="48.12598" lon="6.66245">
        <ele>542</ele>
        <time>2022-01-18T10:30:45Z</time>
      </trkpt>
      <trkpt lat="48.12602" lon="6.66234">
        <ele>542</ele>
        <time>2022-01-18T10:30:47Z</time>
      </trkpt>
      <trkpt lat="48.12601" lon="6.66171">
        <ele>537</ele>
        <time>2022-01-18T10:30:57Z</time>
      </trkpt>
      <trkpt lat="48.12599" lon="6.66159">
        <ele>535</ele>
        <time>2022-01-18T10:30:59Z</time>
      </trkpt>
      <trkpt lat="48.12618" lon="6.66099">
        <ele>533</ele>
        <time>2022-01-18T10:31:09Z</time>
      </trkpt>
      <trkpt lat="48.12629" lon="6.66077">
        <ele>533</ele>
        <time>2022-01-18T10:31:13Z</time>
      </trkpt>
      <trkpt lat="48.12629" lon="6.66064">
        <ele>531</ele>
        <time>2022-01-18T10:31:15Z</time>
      </trkpt>
      <trkpt lat="48.12623" lon="6.66052">
        <ele>529</ele>
        <time>2022-01-18T10:31:18Z</time>
      </trkpt>
      <trkpt lat="48.12614" lon="6.66047">
        <ele>526</ele>
        <time>2022-01-18T10:31:20Z</time>
      </trkpt>
      <trkpt lat="48.12604" lon="6.66036">
        <ele>523</ele>
        <time>2022-01-18T10:31:23Z</time>
      </trkpt>
      <trkpt lat="48.12591" lon="6.66008">
        <ele>516</ele>
        <time>2022-01-18T10:31:28Z</time>
      </trkpt>
      <trkpt lat="48.12561" lon="6.65975">
        <ele>510</ele>
        <time>2022-01-18T10:31:37Z</time>
      </trkpt>
      <trkpt lat="48.12559" lon="6.65949">
        <ele>507</ele>
        <time>2022-01-18T10:31:41Z</time>
      </trkpt>
      <trkpt lat="48.12577" lon="6.659">
        <ele>502</ele>
        <time>2022-01-18T10:31:50Z</time>
      </trkpt>
      <trkpt lat="48.12578" lon="6.65881">
        <ele>501</ele>
        <time>2022-01-18T10:31:53Z</time>
      </trkpt>
      <trkpt lat="48.12587" lon="6.65835">
        <ele>498</ele>
        <time>2022-01-18T10:32:00Z</time>
      </trkpt>
      <trkpt lat="48.1259" lon="6.65798">
        <ele>495</ele>
        <time>2022-01-18T10:32:06Z</time>
      </trkpt>
      <trkpt lat="48.12599" lon="6.65761">
        <ele>493</ele>
        <time>2022-01-18T10:32:12Z</time>
      </trkpt>
      <trkpt lat="48.12627" lon="6.65691">
        <ele>488</ele>
        <time>2022-01-18T10:32:25Z</time>
      </trkpt>
      <trkpt lat="48.12642" lon="6.65635">
        <ele>481</ele>
        <time>2022-01-18T10:32:34Z</time>
      </trkpt>
      <trkpt lat="48.12663" lon="6.65585">
        <ele>478</ele>
        <time>2022-01-18T10:32:43Z</time>
      </trkpt>
      <trkpt lat="48.12676" lon="6.65563">
        <ele>476</ele>
        <time>2022-01-18T10:32:48Z</time>
      </trkpt>
      <trkpt lat="48.12685" lon="6.65554">
        <ele>475</ele>
        <time>2022-01-18T10:32:50Z</time>
      </trkpt>
      <trkpt lat="48.12685" lon="6.6554">
        <ele>472</ele>
        <time>2022-01-18T10:32:53Z</time>
      </trkpt>
      <trkpt lat="48.12634" lon="6.65572">
        <ele>470</ele>
        <time>2022-01-18T10:33:06Z</time>
      </trkpt>
      <trkpt lat="48.12583" lon="6.65619">
        <ele>468</ele>
        <time>2022-01-18T10:33:20Z</time>
      </trkpt>
      <trkpt lat="48.12553" lon="6.65643">
        <ele>470</ele>
        <time>2022-01-18T10:33:27Z</time>
      </trkpt>
      <trkpt lat="48.12523" lon="6.65673">
        <ele>471</ele>
        <time>2022-01-18T10:33:36Z</time>
      </trkpt>
      <trkpt lat="48.12491" lon="6.65668">
        <ele>469</ele>
        <time>2022-01-18T10:33:43Z</time>
      </trkpt>
      <trkpt lat="48.12449" lon="6.65669">
        <ele>472</ele>
        <time>2022-01-18T10:33:53Z</time>
      </trkpt>
      <trkpt lat="48.12429" lon="6.65672">
        <ele>474</ele>
        <time>2022-01-18T10:33:58Z</time>
      </trkpt>
      <trkpt lat="48.12366" lon="6.65666">
        <ele>475</ele>
        <time>2022-01-18T10:34:13Z</time>
      </trkpt>
      <trkpt lat="48.12336" lon="6.65677">
        <ele>477</ele>
        <time>2022-01-18T10:34:20Z</time>
      </trkpt>
      <trkpt lat="48.12303" lon="6.65695">
        <ele>479</ele>
        <time>2022-01-18T10:34:28Z</time>
      </trkpt>
      <trkpt lat="48.12276" lon="6.65714">
        <ele>479</ele>
        <time>2022-01-18T10:34:35Z</time>
      </trkpt>
      <trkpt lat="48.12211" lon="6.65775">
        <ele>482</ele>
        <time>2022-01-18T10:34:53Z</time>
      </trkpt>
      <trkpt lat="48.12186" lon="6.65803">
        <ele>486</ele>
        <time>2022-01-18T10:35:00Z</time>
      </trkpt>
      <trkpt lat="48.12167" lon="6.65811">
        <ele>485</ele>
        <time>2022-01-18T10:35:05Z</time>
      </trkpt>
      <trkpt lat="48.12135" lon="6.65813">
        <ele>485</ele>
        <time>2022-01-18T10:35:12Z</time>
      </trkpt>
      <trkpt lat="48.12118" lon="6.65824">
        <ele>486</ele>
        <time>2022-01-18T10:35:17Z</time>
      </trkpt>
      <trkpt lat="48.121" lon="6.6583">
        <ele>486</ele>
        <time>2022-01-18T10:35:21Z</time>
      </trkpt>
      <trkpt lat="48.1209" lon="6.65843">
        <ele>487</ele>
        <time>2022-01-18T10:35:24Z</time>
      </trkpt>
      <trkpt lat="48.12071" lon="6.65858">
        <ele>489</ele>
        <time>2022-01-18T10:35:29Z</time>
      </trkpt>
      <trkpt lat="48.12041" lon="6.65873">
        <ele>492</ele>
        <time>2022-01-18T10:35:36Z</time>
      </trkpt>
      <trkpt lat="48.11989" lon="6.65879">
        <ele>495</ele>
        <time>2022-01-18T10:35:49Z</time>
      </trkpt>
      <trkpt lat="48.11955" lon="6.65852">
        <ele>497</ele>
        <time>2022-01-18T10:35:58Z</time>
      </trkpt>
      <trkpt lat="48.1194" lon="6.65836">
        <ele>498</ele>
        <time>2022-01-18T10:36:02Z</time>
      </trkpt>
      <trkpt lat="48.11932" lon="6.65824">
        <ele>499</ele>
        <time>2022-01-18T10:36:05Z</time>
      </trkpt>
      <trkpt lat="48.11927" lon="6.65793">
        <ele>502</ele>
        <time>2022-01-18T10:36:10Z</time>
      </trkpt>
      <trkpt lat="48.11917" lon="6.65796">
        <ele>503</ele>
        <time>2022-01-18T10:36:12Z</time>
      </trkpt>
      <trkpt lat="48.11879" lon="6.65816">
        <ele>504</ele>
        <time>2022-01-18T10:36:21Z</time>
      </trkpt>
      <trkpt lat="48.11858" lon="6.65818">
        <ele>505</ele>
        <time>2022-01-18T10:36:26Z</time>
      </trkpt>
      <trkpt lat="48.11827" lon="6.65782">
        <ele>511</ele>
        <time>2022-01-18T10:36:35Z</time>
      </trkpt>
      <trkpt lat="48.11828" lon="6.65769">
        <ele>513</ele>
        <time>2022-01-18T10:36:37Z</time>
      </trkpt>
      <trkpt lat="48.11844" lon="6.65761">
        <ele>513</ele>
        <time>2022-01-18T10:36:41Z</time>
      </trkpt>
      <trkpt lat="48.11862" lon="6.65745">
        <ele>512</ele>
        <time>2022-01-18T10:36:46Z</time>
      </trkpt>
      <trkpt lat="48.11865" lon="6.65737">
        <ele>512</ele>
        <time>2022-01-18T10:36:48Z</time>
      </trkpt>
      <trkpt lat="48.11864" lon="6.65726">
        <ele>512</ele>
        <time>2022-01-18T10:36:49Z</time>
      </trkpt>
      <trkpt lat="48.11861" lon="6.65721">
        <ele>513</ele>
        <time>2022-01-18T10:36:50Z</time>
      </trkpt>
      <trkpt lat="48.11848" lon="6.65725">
        <ele>514</ele>
        <time>2022-01-18T10:36:54Z</time>
      </trkpt>
      <trkpt lat="48.11839" lon="6.65733">
        <ele>515</ele>
        <time>2022-01-18T10:36:56Z</time>
      </trkpt>
      <trkpt lat="48.11827" lon="6.65738">
        <ele>515</ele>
        <time>2022-01-18T10:36:59Z</time>
      </trkpt>
      <trkpt lat="48.11819" lon="6.65727">
        <ele>516</ele>
        <time>2022-01-18T10:37:01Z</time>
      </trkpt>
      <trkpt lat="48.11809" lon="6.65671">
        <ele>518</ele>
        <time>2022-01-18T10:37:10Z</time>
      </trkpt>
      <trkpt lat="48.11803" lon="6.65646">
        <ele>520</ele>
        <time>2022-01-18T10:37:15Z</time>
      </trkpt>
      <trkpt lat="48.11794" lon="6.65629">
        <ele>523</ele>
        <time>2022-01-18T10:37:18Z</time>
      </trkpt>
      <trkpt lat="48.11791" lon="6.65608">
        <ele>525</ele>
        <time>2022-01-18T10:37:21Z</time>
      </trkpt>
      <trkpt lat="48.11796" lon="6.65549">
        <ele>529</ele>
        <time>2022-01-18T10:37:31Z</time>
      </trkpt>
      <trkpt lat="48.11818" lon="6.65493">
        <ele>527</ele>
        <time>2022-01-18T10:37:41Z</time>
      </trkpt>
      <trkpt lat="48.11825" lon="6.65464">
        <ele>527</ele>
        <time>2022-01-18T10:37:46Z</time>
      </trkpt>
      <trkpt lat="48.11835" lon="6.65437">
        <ele>525</ele>
        <time>2022-01-18T10:37:50Z</time>
      </trkpt>
      <trkpt lat="48.11846" lon="6.65341">
        <ele>528</ele>
        <time>2022-01-18T10:38:06Z</time>
      </trkpt>
      <trkpt lat="48.11853" lon="6.6531">
        <ele>532</ele>
        <time>2022-01-18T10:38:11Z</time>
      </trkpt>
      <trkpt lat="48.11854" lon="6.65287">
        <ele>537</ele>
        <time>2022-01-18T10:38:14Z</time>
      </trkpt>
      <trkpt lat="48.11859" lon="6.65278">
        <ele>538</ele>
        <time>2022-01-18T10:38:16Z</time>
      </trkpt>
      <trkpt lat="48.11929" lon="6.65253">
        <ele>536</ele>
        <time>2022-01-18T10:38:33Z</time>
      </trkpt>
      <trkpt lat="48.11949" lon="6.65241">
        <ele>535</ele>
        <time>2022-01-18T10:38:38Z</time>
      </trkpt>
      <trkpt lat="48.11957" lon="6.65241">
        <ele>534</ele>
        <time>2022-01-18T10:38:40Z</time>
      </trkpt>
      <trkpt lat="48.11986" lon="6.65216">
        <ele>532</ele>
        <time>2022-01-18T10:38:48Z</time>
      </trkpt>
      <trkpt lat="48.12" lon="6.65197">
        <ele>531</ele>
        <time>2022-01-18T10:38:52Z</time>
      </trkpt>
      <trkpt lat="48.12005" lon="6.65179">
        <ele>532</ele>
        <time>2022-01-18T10:38:55Z</time>
      </trkpt>
      <trkpt lat="48.12007" lon="6.65159">
        <ele>532</ele>
        <time>2022-01-18T10:38:58Z</time>
      </trkpt>
      <trkpt lat="48.12005" lon="6.65138">
        <ele>530</ele>
        <time>2022-01-18T10:39:02Z</time>
      </trkpt>
      <trkpt lat="48.12013" lon="6.65107">
        <ele>527</ele>
        <time>2022-01-18T10:39:07Z</time>
      </trkpt>
      <trkpt lat="48.12" lon="6.65054">
        <ele>525</ele>
        <time>2022-01-18T10:39:16Z</time>
      </trkpt>
      <trkpt lat="48.11997" lon="6.65031">
        <ele>527</ele>
        <time>2022-01-18T10:39:19Z</time>
      </trkpt>
      <trkpt lat="48.11977" lon="6.64974">
        <ele>536</ele>
        <time>2022-01-18T10:39:29Z</time>
      </trkpt>
      <trkpt lat="48.11972" lon="6.64935">
        <ele>541</ele>
        <time>2022-01-18T10:39:35Z</time>
      </trkpt>
      <trkpt lat="48.11973" lon="6.64911">
        <ele>543</ele>
        <time>2022-01-18T10:39:39Z</time>
      </trkpt>
      <trkpt lat="48.11966" lon="6.64887">
        <ele>547</ele>
        <time>2022-01-18T10:39:43Z</time>
      </trkpt>
      <trkpt lat="48.11971" lon="6.64873">
        <ele>548</ele>
        <time>2022-01-18T10:39:46Z</time>
      </trkpt>
      <trkpt lat="48.11985" lon="6.6487">
        <ele>546</ele>
        <time>2022-01-18T10:39:49Z</time>
      </trkpt>
      <trkpt lat="48.11995" lon="6.64872">
        <ele>544</ele>
        <time>2022-01-18T10:39:51Z</time>
      </trkpt>
      <trkpt lat="48.12012" lon="6.6488">
        <ele>545</ele>
        <time>2022-01-18T10:39:56Z</time>
      </trkpt>
      <trkpt lat="48.12023" lon="6.64902">
        <ele>544</ele>
        <time>2022-01-18T10:40:00Z</time>
      </trkpt>
      <trkpt lat="48.12036" lon="6.64964">
        <ele>538</ele>
        <time>2022-01-18T10:40:10Z</time>
      </trkpt>
      <trkpt lat="48.12044" lon="6.64987">
        <ele>536</ele>
        <time>2022-01-18T10:40:14Z</time>
      </trkpt>
      <trkpt lat="48.12064" lon="6.65018">
        <ele>535</ele>
        <time>2022-01-18T10:40:21Z</time>
      </trkpt>
      <trkpt lat="48.12078" lon="6.65047">
        <ele>532</ele>
        <time>2022-01-18T10:40:26Z</time>
      </trkpt>
      <trkpt lat="48.12092" lon="6.65063">
        <ele>533</ele>
        <time>2022-01-18T10:40:30Z</time>
      </trkpt>
      <trkpt lat="48.12102" lon="6.65089">
        <ele>531</ele>
        <time>2022-01-18T10:40:35Z</time>
      </trkpt>
      <trkpt lat="48.12125" lon="6.65127">
        <ele>533</ele>
        <time>2022-01-18T10:40:43Z</time>
      </trkpt>
      <trkpt lat="48.12135" lon="6.65149">
        <ele>532</ele>
        <time>2022-01-18T10:40:47Z</time>
      </trkpt>
      <trkpt lat="48.12142" lon="6.65152">
        <ele>534</ele>
        <time>2022-01-18T10:40:49Z</time>
      </trkpt>
      <trkpt lat="48.12156" lon="6.65171">
        <ele>534</ele>
        <time>2022-01-18T10:40:53Z</time>
      </trkpt>
      <trkpt lat="48.12167" lon="6.65197">
        <ele>531</ele>
        <time>2022-01-18T10:40:58Z</time>
      </trkpt>
      <trkpt lat="48.12192" lon="6.65225">
        <ele>527</ele>
        <time>2022-01-18T10:41:05Z</time>
      </trkpt>
      <trkpt lat="48.12212" lon="6.65238">
        <ele>526</ele>
        <time>2022-01-18T10:41:10Z</time>
      </trkpt>
      <trkpt lat="48.12246" lon="6.65244">
        <ele>527</ele>
        <time>2022-01-18T10:41:18Z</time>
      </trkpt>
      <trkpt lat="48.12248" lon="6.65237">
        <ele>530</ele>
        <time>2022-01-18T10:41:20Z</time>
      </trkpt>
      <trkpt lat="48.12243" lon="6.65224">
        <ele>533</ele>
        <time>2022-01-18T10:41:22Z</time>
      </trkpt>
      <trkpt lat="48.12207" lon="6.65183">
        <ele>540</ele>
        <time>2022-01-18T10:41:33Z</time>
      </trkpt>
      <trkpt lat="48.12201" lon="6.65161">
        <ele>545</ele>
        <time>2022-01-18T10:41:36Z</time>
      </trkpt>
      <trkpt lat="48.12174" lon="6.651">
        <ele>551</ele>
        <time>2022-01-18T10:41:48Z</time>
      </trkpt>
      <trkpt lat="48.1216" lon="6.65074">
        <ele>553</ele>
        <time>2022-01-18T10:41:53Z</time>
      </trkpt>
      <trkpt lat="48.12146" lon="6.65057">
        <ele>552</ele>
        <time>2022-01-18T10:41:57Z</time>
      </trkpt>
      <trkpt lat="48.12136" lon="6.6504">
        <ele>552</ele>
        <time>2022-01-18T10:42:01Z</time>
      </trkpt>
      <trkpt lat="48.12136" lon="6.6503">
        <ele>554</ele>
        <time>2022-01-18T10:42:02Z</time>
      </trkpt>
      <trkpt lat="48.12114" lon="6.64995">
        <ele>553</ele>
        <time>2022-01-18T10:42:10Z</time>
      </trkpt>
      <trkpt lat="48.12102" lon="6.64941">
        <ele>560</ele>
        <time>2022-01-18T10:42:19Z</time>
      </trkpt>
      <trkpt lat="48.12084" lon="6.64893">
        <ele>562</ele>
        <time>2022-01-18T10:42:27Z</time>
      </trkpt>
      <trkpt lat="48.12075" lon="6.64838">
        <ele>570</ele>
        <time>2022-01-18T10:42:36Z</time>
      </trkpt>
      <trkpt lat="48.12078" lon="6.64814">
        <ele>575</ele>
        <time>2022-01-18T10:42:40Z</time>
      </trkpt>
      <trkpt lat="48.12077" lon="6.64781">
        <ele>581</ele>
        <time>2022-01-18T10:42:45Z</time>
      </trkpt>
      <trkpt lat="48.12072" lon="6.64763">
        <ele>584</ele>
        <time>2022-01-18T10:42:48Z</time>
      </trkpt>
      <trkpt lat="48.12061" lon="6.64742">
        <ele>585</ele>
        <time>2022-01-18T10:42:52Z</time>
      </trkpt>
      <trkpt lat="48.12037" lon="6.64706">
        <ele>586</ele>
        <time>2022-01-18T10:43:00Z</time>
      </trkpt>
      <trkpt lat="48.12024" lon="6.64662">
        <ele>591</ele>
        <time>2022-01-18T10:43:08Z</time>
      </trkpt>
      <trkpt lat="48.11988" lon="6.64575">
        <ele>599</ele>
        <time>2022-01-18T10:43:24Z</time>
      </trkpt>
      <trkpt lat="48.11961" lon="6.64495">
        <ele>608</ele>
        <time>2022-01-18T10:43:38Z</time>
      </trkpt>
      <trkpt lat="48.11952" lon="6.6445">
        <ele>614</ele>
        <time>2022-01-18T10:43:45Z</time>
      </trkpt>
      <trkpt lat="48.1195" lon="6.6436">
        <ele>629</ele>
        <time>2022-01-18T10:43:59Z</time>
      </trkpt>
      <trkpt lat="48.11947" lon="6.64339">
        <ele>632</ele>
        <time>2022-01-18T10:44:02Z</time>
      </trkpt>
      <trkpt lat="48.11938" lon="6.64329">
        <ele>633</ele>
        <time>2022-01-18T10:44:05Z</time>
      </trkpt>
      <trkpt lat="48.11903" lon="6.64309">
        <ele>634</ele>
        <time>2022-01-18T10:44:14Z</time>
      </trkpt>
      <trkpt lat="48.11891" lon="6.64295">
        <ele>636</ele>
        <time>2022-01-18T10:44:17Z</time>
      </trkpt>
      <trkpt lat="48.11887" lon="6.64269">
        <ele>639</ele>
        <time>2022-01-18T10:44:21Z</time>
      </trkpt>
      <trkpt lat="48.11904" lon="6.64201">
        <ele>642</ele>
        <time>2022-01-18T10:44:33Z</time>
      </trkpt>
      <trkpt lat="48.1192" lon="6.64082">
        <ele>640</ele>
        <time>2022-01-18T10:44:52Z</time>
      </trkpt>
      <trkpt lat="48.11928" lon="6.64047">
        <ele>639</ele>
        <time>2022-01-18T10:44:57Z</time>
      </trkpt>
      <trkpt lat="48.11943" lon="6.64011">
        <ele>639</ele>
        <time>2022-01-18T10:45:04Z</time>
      </trkpt>
      <trkpt lat="48.11956" lon="6.63958">
        <ele>639</ele>
        <time>2022-01-18T10:45:13Z</time>
      </trkpt>
      <trkpt lat="48.11956" lon="6.63924">
        <ele>639</ele>
        <time>2022-01-18T10:45:18Z</time>
      </trkpt>
      <trkpt lat="48.11952" lon="6.63908">
        <ele>640</ele>
        <time>2022-01-18T10:45:21Z</time>
      </trkpt>
      <trkpt lat="48.11939" lon="6.63877">
        <ele>639</ele>
        <time>2022-01-18T10:45:26Z</time>
      </trkpt>
      <trkpt lat="48.11935" lon="6.63858">
        <ele>639</ele>
        <time>2022-01-18T10:45:30Z</time>
      </trkpt>
      <trkpt lat="48.11904" lon="6.63794">
        <ele>639</ele>
        <time>2022-01-18T10:45:42Z</time>
      </trkpt>
      <trkpt lat="48.11885" lon="6.63722">
        <ele>637</ele>
        <time>2022-01-18T10:45:54Z</time>
      </trkpt>
      <trkpt lat="48.11874" lon="6.63701">
        <ele>635</ele>
        <time>2022-01-18T10:45:58Z</time>
      </trkpt>
      <trkpt lat="48.11844" lon="6.63594">
        <ele>625</ele>
        <time>2022-01-18T10:46:16Z</time>
      </trkpt>
      <trkpt lat="48.11833" lon="6.63566">
        <ele>623</ele>
        <time>2022-01-18T10:46:21Z</time>
      </trkpt>
      <trkpt lat="48.11822" lon="6.63546">
        <ele>623</ele>
        <time>2022-01-18T10:46:25Z</time>
      </trkpt>
      <trkpt lat="48.11809" lon="6.63494">
        <ele>622</ele>
        <time>2022-01-18T10:46:34Z</time>
      </trkpt>
      <trkpt lat="48.11803" lon="6.63454">
        <ele>619</ele>
        <time>2022-01-18T10:46:40Z</time>
      </trkpt>
      <trkpt lat="48.11783" lon="6.6344">
        <ele>622</ele>
        <time>2022-01-18T10:46:45Z</time>
      </trkpt>
      <trkpt lat="48.11747" lon="6.63391">
        <ele>624</ele>
        <time>2022-01-18T10:46:57Z</time>
      </trkpt>
      <trkpt lat="48.11737" lon="6.63383">
        <ele>625</ele>
        <time>2022-01-18T10:46:59Z</time>
      </trkpt>
      <trkpt lat="48.11705" lon="6.63327">
        <ele>625</ele>
        <time>2022-01-18T10:47:11Z</time>
      </trkpt>
      <trkpt lat="48.11697" lon="6.63307">
        <ele>624</ele>
        <time>2022-01-18T10:47:15Z</time>
      </trkpt>
      <trkpt lat="48.11692" lon="6.63285">
        <ele>624</ele>
        <time>2022-01-18T10:47:18Z</time>
      </trkpt>
      <trkpt lat="48.11707" lon="6.63237">
        <ele>618</ele>
        <time>2022-01-18T10:47:26Z</time>
      </trkpt>
      <trkpt lat="48.11714" lon="6.63232">
        <ele>617</ele>
        <time>2022-01-18T10:47:28Z</time>
      </trkpt>
      <trkpt lat="48.11721" lon="6.63219">
        <ele>615</ele>
        <time>2022-01-18T10:47:31Z</time>
      </trkpt>
      <trkpt lat="48.11729" lon="6.63186">
        <ele>612</ele>
        <time>2022-01-18T10:47:36Z</time>
      </trkpt>
      <trkpt lat="48.11733" lon="6.63148">
        <ele>612</ele>
        <time>2022-01-18T10:47:42Z</time>
      </trkpt>
      <trkpt lat="48.11748" lon="6.63101">
        <ele>614</ele>
        <time>2022-01-18T10:47:50Z</time>
      </trkpt>
      <trkpt lat="48.1177" lon="6.63065">
        <ele>611</ele>
        <time>2022-01-18T10:47:58Z</time>
      </trkpt>
      <trkpt lat="48.11777" lon="6.63049">
        <ele>611</ele>
        <time>2022-01-18T10:48:01Z</time>
      </trkpt>
      <trkpt lat="48.11823" lon="6.62994">
        <ele>611</ele>
        <time>2022-01-18T10:48:15Z</time>
      </trkpt>
      <trkpt lat="48.11848" lon="6.62958">
        <ele>612</ele>
        <time>2022-01-18T10:48:23Z</time>
      </trkpt>
      <trkpt lat="48.11911" lon="6.62916">
        <ele>610</ele>
        <time>2022-01-18T10:48:39Z</time>
      </trkpt>
      <trkpt lat="48.1194" lon="6.6291">
        <ele>608</ele>
        <time>2022-01-18T10:48:46Z</time>
      </trkpt>
      <trkpt lat="48.1197" lon="6.62908">
        <ele>606</ele>
        <time>2022-01-18T10:48:53Z</time>
      </trkpt>
      <trkpt lat="48.12013" lon="6.6292">
        <ele>602</ele>
        <time>2022-01-18T10:49:03Z</time>
      </trkpt>
      <trkpt lat="48.12021" lon="6.62927">
        <ele>600</ele>
        <time>2022-01-18T10:49:05Z</time>
      </trkpt>
      <trkpt lat="48.12034" lon="6.62926">
        <ele>598</ele>
        <time>2022-01-18T10:49:08Z</time>
      </trkpt>
      <trkpt lat="48.12042" lon="6.62919">
        <ele>598</ele>
        <time>2022-01-18T10:49:10Z</time>
      </trkpt>
      <trkpt lat="48.12058" lon="6.62878">
        <ele>596</ele>
        <time>2022-01-18T10:49:18Z</time>
      </trkpt>
      <trkpt lat="48.1206" lon="6.62863">
        <ele>596</ele>
        <time>2022-01-18T10:49:20Z</time>
      </trkpt>
      <trkpt lat="48.12075" lon="6.62812">
        <ele>597</ele>
        <time>2022-01-18T10:49:29Z</time>
      </trkpt>
      <trkpt lat="48.12106" lon="6.62738">
        <ele>600</ele>
        <time>2022-01-18T10:49:43Z</time>
      </trkpt>
      <trkpt lat="48.12165" lon="6.62668">
        <ele>603</ele>
        <time>2022-01-18T10:50:00Z</time>
      </trkpt>
      <trkpt lat="48.12187" lon="6.62657">
        <ele>602</ele>
        <time>2022-01-18T10:50:06Z</time>
      </trkpt>
      <trkpt lat="48.12198" lon="6.62659">
        <ele>602</ele>
        <time>2022-01-18T10:50:08Z</time>
      </trkpt>
      <trkpt lat="48.1222" lon="6.62655">
        <ele>602</ele>
        <time>2022-01-18T10:50:13Z</time>
      </trkpt>
      <trkpt lat="48.12232" lon="6.62644">
        <ele>601</ele>
        <time>2022-01-18T10:50:17Z</time>
      </trkpt>
      <trkpt lat="48.12241" lon="6.62624">
        <ele>600</ele>
        <time>2022-01-18T10:50:20Z</time>
      </trkpt>
      <trkpt lat="48.12256" lon="6.62603">
        <ele>600</ele>
        <time>2022-01-18T10:50:25Z</time>
      </trkpt>
      <trkpt lat="48.12276" lon="6.62558">
        <ele>598</ele>
        <time>2022-01-18T10:50:34Z</time>
      </trkpt>
      <trkpt lat="48.12279" lon="6.6253">
        <ele>597</ele>
        <time>2022-01-18T10:50:38Z</time>
      </trkpt>
      <trkpt lat="48.12315" lon="6.62501">
        <ele>599</ele>
        <time>2022-01-18T10:50:48Z</time>
      </trkpt>
      <trkpt lat="48.12361" lon="6.62452">
        <ele>600</ele>
        <time>2022-01-18T10:51:01Z</time>
      </trkpt>
      <trkpt lat="48.12373" lon="6.62442">
        <ele>600</ele>
        <time>2022-01-18T10:51:04Z</time>
      </trkpt>
      <trkpt lat="48.12414" lon="6.62471">
        <ele>601</ele>
        <time>2022-01-18T10:51:15Z</time>
      </trkpt>
      <trkpt lat="48.12471" lon="6.62486">
        <ele>599</ele>
        <time>2022-01-18T10:51:28Z</time>
      </trkpt>
      <trkpt lat="48.12519" lon="6.62497">
        <ele>597</ele>
        <time>2022-01-18T10:51:39Z</time>
      </trkpt>
      <trkpt lat="48.12567" lon="6.62493">
        <ele>593</ele>
        <time>2022-01-18T10:51:51Z</time>
      </trkpt>
      <trkpt lat="48.1264" lon="6.62581">
        <ele>594</ele>
        <time>2022-01-18T10:52:12Z</time>
      </trkpt>
      <trkpt lat="48.12662" lon="6.626">
        <ele>594</ele>
        <time>2022-01-18T10:52:18Z</time>
      </trkpt>
      <trkpt lat="48.1269" lon="6.62659">
        <ele>588</ele>
        <time>2022-01-18T10:52:30Z</time>
      </trkpt>
      <trkpt lat="48.12723" lon="6.62701">
        <ele>584</ele>
        <time>2022-01-18T10:52:40Z</time>
      </trkpt>
      <trkpt lat="48.12747" lon="6.6274">
        <ele>582</ele>
        <time>2022-01-18T10:52:48Z</time>
      </trkpt>
      <trkpt lat="48.12813" lon="6.62784">
        <ele>574</ele>
        <time>2022-01-18T10:53:05Z</time>
      </trkpt>
      <trkpt lat="48.12876" lon="6.62802">
        <ele>571</ele>
        <time>2022-01-18T10:53:20Z</time>
      </trkpt>
      <trkpt lat="48.129" lon="6.62804">
        <ele>571</ele>
        <time>2022-01-18T10:53:26Z</time>
      </trkpt>
      <trkpt lat="48.12926" lon="6.62812">
        <ele>570</ele>
        <time>2022-01-18T10:53:32Z</time>
      </trkpt>
      <trkpt lat="48.1294" lon="6.62821">
        <ele>570</ele>
        <time>2022-01-18T10:53:35Z</time>
      </trkpt>
      <trkpt lat="48.1296" lon="6.62826">
        <ele>570</ele>
        <time>2022-01-18T10:53:40Z</time>
      </trkpt>
      <trkpt lat="48.12997" lon="6.62842">
        <ele>569</ele>
        <time>2022-01-18T10:53:49Z</time>
      </trkpt>
      <trkpt lat="48.1303" lon="6.62861">
        <ele>566</ele>
        <time>2022-01-18T10:53:57Z</time>
      </trkpt>
      <trkpt lat="48.13081" lon="6.6287">
        <ele>567</ele>
        <time>2022-01-18T10:54:09Z</time>
      </trkpt>
      <trkpt lat="48.13138" lon="6.62906">
        <ele>564</ele>
        <time>2022-01-18T10:54:24Z</time>
      </trkpt>
      <trkpt lat="48.1315" lon="6.62907">
        <ele>565</ele>
        <time>2022-01-18T10:54:27Z</time>
      </trkpt>
      <trkpt lat="48.1321" lon="6.62922">
        <ele>562</ele>
        <time>2022-01-18T10:54:41Z</time>
      </trkpt>
      <trkpt lat="48.13262" lon="6.62929">
        <ele>558</ele>
        <time>2022-01-18T10:54:53Z</time>
      </trkpt>
      <trkpt lat="48.13347" lon="6.62927">
        <ele>552</ele>
        <time>2022-01-18T10:55:13Z</time>
      </trkpt>
      <trkpt lat="48.13377" lon="6.62912">
        <ele>551</ele>
        <time>2022-01-18T10:55:20Z</time>
      </trkpt>
      <trkpt lat="48.13404" lon="6.62902">
        <ele>549</ele>
        <time>2022-01-18T10:55:27Z</time>
      </trkpt>
      <trkpt lat="48.13446" lon="6.62878">
        <ele>545</ele>
        <time>2022-01-18T10:55:37Z</time>
      </trkpt>
      <trkpt lat="48.13467" lon="6.6287">
        <ele>542</ele>
        <time>2022-01-18T10:55:42Z</time>
      </trkpt>
      <trkpt lat="48.13486" lon="6.62869">
        <ele>541</ele>
        <time>2022-01-18T10:55:47Z</time>
      </trkpt>
      <trkpt lat="48.135" lon="6.6287">
        <ele>539</ele>
        <time>2022-01-18T10:55:50Z</time>
      </trkpt>
      <trkpt lat="48.13529" lon="6.6289">
        <ele>535</ele>
        <time>2022-01-18T10:55:57Z</time>
      </trkpt>
      <trkpt lat="48.13546" lon="6.62905">
        <ele>533</ele>
        <time>2022-01-18T10:56:02Z</time>
      </trkpt>
      <trkpt lat="48.13552" lon="6.62914">
        <ele>533</ele>
        <time>2022-01-18T10:56:04Z</time>
      </trkpt>
      <trkpt lat="48.13561" lon="6.62919">
        <ele>532</ele>
        <time>2022-01-18T10:56:06Z</time>
      </trkpt>
      <trkpt lat="48.13572" lon="6.62919">
        <ele>531</ele>
        <time>2022-01-18T10:56:09Z</time>
      </trkpt>
      <trkpt lat="48.1358" lon="6.62908">
        <ele>530</ele>
        <time>2022-01-18T10:56:11Z</time>
      </trkpt>
      <trkpt lat="48.13584" lon="6.62887">
        <ele>528</ele>
        <time>2022-01-18T10:56:15Z</time>
      </trkpt>
      <trkpt lat="48.13577" lon="6.62804">
        <ele>526</ele>
        <time>2022-01-18T10:56:28Z</time>
      </trkpt>
      <trkpt lat="48.13579" lon="6.62777">
        <ele>524</ele>
        <time>2022-01-18T10:56:32Z</time>
      </trkpt>
      <trkpt lat="48.13587" lon="6.62732">
        <ele>522</ele>
        <time>2022-01-18T10:56:39Z</time>
      </trkpt>
      <trkpt lat="48.1362" lon="6.62664">
        <ele>514</ele>
        <time>2022-01-18T10:56:52Z</time>
      </trkpt>
      <trkpt lat="48.13632" lon="6.6262">
        <ele>509</ele>
        <time>2022-01-18T10:57:00Z</time>
      </trkpt>
      <trkpt lat="48.13633" lon="6.62594">
        <ele>507</ele>
        <time>2022-01-18T10:57:04Z</time>
      </trkpt>
      <trkpt lat="48.13625" lon="6.62567">
        <ele>505</ele>
        <time>2022-01-18T10:57:08Z</time>
      </trkpt>
      <trkpt lat="48.13608" lon="6.6255">
        <ele>504</ele>
        <time>2022-01-18T10:57:13Z</time>
      </trkpt>
      <trkpt lat="48.13584" lon="6.62533">
        <ele>504</ele>
        <time>2022-01-18T10:57:19Z</time>
      </trkpt>
      <trkpt lat="48.13522" lon="6.62517">
        <ele>501</ele>
        <time>2022-01-18T10:57:34Z</time>
      </trkpt>
      <trkpt lat="48.13471" lon="6.62512">
        <ele>498</ele>
        <time>2022-01-18T10:57:46Z</time>
      </trkpt>
      <trkpt lat="48.13443" lon="6.6252">
        <ele>498</ele>
        <time>2022-01-18T10:57:53Z</time>
      </trkpt>
      <trkpt lat="48.13432" lon="6.62508">
        <ele>494</ele>
        <time>2022-01-18T10:57:56Z</time>
      </trkpt>
      <trkpt lat="48.13386" lon="6.62522">
        <ele>500</ele>
        <time>2022-01-18T10:58:07Z</time>
      </trkpt>
      <trkpt lat="48.1338" lon="6.62519">
        <ele>500</ele>
        <time>2022-01-18T10:58:08Z</time>
      </trkpt>
      <trkpt lat="48.13363" lon="6.62519">
        <ele>503</ele>
        <time>2022-01-18T10:58:12Z</time>
      </trkpt>
      <trkpt lat="48.13353" lon="6.62515">
        <ele>503</ele>
        <time>2022-01-18T10:58:15Z</time>
      </trkpt>
      <trkpt lat="48.13338" lon="6.62501">
        <ele>502</ele>
        <time>2022-01-18T10:58:19Z</time>
      </trkpt>
      <trkpt lat="48.13328" lon="6.62486">
        <ele>500</ele>
        <time>2022-01-18T10:58:22Z</time>
      </trkpt>
      <trkpt lat="48.13295" lon="6.62463">
        <ele>503</ele>
        <time>2022-01-18T10:58:31Z</time>
      </trkpt>
      <trkpt lat="48.13282" lon="6.6245">
        <ele>503</ele>
        <time>2022-01-18T10:58:34Z</time>
      </trkpt>
      <trkpt lat="48.13265" lon="6.62418">
        <ele>497</ele>
        <time>2022-01-18T10:58:41Z</time>
      </trkpt>
      <trkpt lat="48.13231" lon="6.62379">
        <ele>499</ele>
        <time>2022-01-18T10:58:51Z</time>
      </trkpt>
      <trkpt lat="48.13223" lon="6.6236">
        <ele>497</ele>
        <time>2022-01-18T10:58:54Z</time>
      </trkpt>
      <trkpt lat="48.13182" lon="6.62305">
        <ele>499</ele>
        <time>2022-01-18T10:59:07Z</time>
      </trkpt>
      <trkpt lat="48.13179" lon="6.62296">
        <ele>498</ele>
        <time>2022-01-18T10:59:09Z</time>
      </trkpt>
      <trkpt lat="48.13169" lon="6.62293">
        <ele>500</ele>
        <time>2022-01-18T10:59:11Z</time>
      </trkpt>
      <trkpt lat="48.13159" lon="6.62276">
        <ele>500</ele>
        <time>2022-01-18T10:59:14Z</time>
      </trkpt>
      <trkpt lat="48.13155" lon="6.62248">
        <ele>495</ele>
        <time>2022-01-18T10:59:19Z</time>
      </trkpt>
      <trkpt lat="48.13155" lon="6.62228">
        <ele>492</ele>
        <time>2022-01-18T10:59:22Z</time>
      </trkpt>
      <trkpt lat="48.13165" lon="6.62208">
        <ele>484</ele>
        <time>2022-01-18T10:59:26Z</time>
      </trkpt>
      <trkpt lat="48.13172" lon="6.62177">
        <ele>477</ele>
        <time>2022-01-18T10:59:31Z</time>
      </trkpt>
      <trkpt lat="48.13169" lon="6.62155">
        <ele>475</ele>
        <time>2022-01-18T10:59:35Z</time>
      </trkpt>
      <trkpt lat="48.1315" lon="6.62115">
        <ele>478</ele>
        <time>2022-01-18T10:59:42Z</time>
      </trkpt>
      <trkpt lat="48.13131" lon="6.62093">
        <ele>481</ele>
        <time>2022-01-18T10:59:48Z</time>
      </trkpt>
      <trkpt lat="48.13096" lon="6.62066">
        <ele>487</ele>
        <time>2022-01-18T10:59:57Z</time>
      </trkpt>
      <trkpt lat="48.13049" lon="6.62048">
        <ele>493</ele>
        <time>2022-01-18T11:00:08Z</time>
      </trkpt>
      <trkpt lat="48.13023" lon="6.62043">
        <ele>497</ele>
        <time>2022-01-18T11:00:14Z</time>
      </trkpt>
      <trkpt lat="48.13005" lon="6.62036">
        <ele>498</ele>
        <time>2022-01-18T11:00:19Z</time>
      </trkpt>
      <trkpt lat="48.12971" lon="6.62002">
        <ele>495</ele>
        <time>2022-01-18T11:00:28Z</time>
      </trkpt>
      <trkpt lat="48.12942" lon="6.61988">
        <ele>496</ele>
        <time>2022-01-18T11:00:35Z</time>
      </trkpt>
      <trkpt lat="48.12927" lon="6.61978">
        <ele>496</ele>
        <time>2022-01-18T11:00:39Z</time>
      </trkpt>
      <trkpt lat="48.12912" lon="6.61971">
        <ele>498</ele>
        <time>2022-01-18T11:00:43Z</time>
      </trkpt>
      <trkpt lat="48.1289" lon="6.61968">
        <ele>502</ele>
        <time>2022-01-18T11:00:48Z</time>
      </trkpt>
      <trkpt lat="48.12864" lon="6.6197">
        <ele>509</ele>
        <time>2022-01-18T11:00:54Z</time>
      </trkpt>
      <trkpt lat="48.12852" lon="6.61965">
        <ele>512</ele>
        <time>2022-01-18T11:00:57Z</time>
      </trkpt>
      <trkpt lat="48.12843" lon="6.61948">
        <ele>511</ele>
        <time>2022-01-18T11:01:00Z</time>
      </trkpt>
      <trkpt lat="48.1284" lon="6.61932">
        <ele>510</ele>
        <time>2022-01-18T11:01:03Z</time>
      </trkpt>
      <trkpt lat="48.12838" lon="6.61916">
        <ele>508</ele>
        <time>2022-01-18T11:01:06Z</time>
      </trkpt>
      <trkpt lat="48.1284" lon="6.61897">
        <ele>509</ele>
        <time>2022-01-18T11:01:09Z</time>
      </trkpt>
      <trkpt lat="48.12855" lon="6.61881">
        <ele>504</ele>
        <time>2022-01-18T11:01:13Z</time>
      </trkpt>
      <trkpt lat="48.1287" lon="6.61875">
        <ele>498</ele>
        <time>2022-01-18T11:01:17Z</time>
      </trkpt>
      <trkpt lat="48.12883" lon="6.61857">
        <ele>493</ele>
        <time>2022-01-18T11:01:21Z</time>
      </trkpt>
      <trkpt lat="48.1289" lon="6.61842">
        <ele>490</ele>
        <time>2022-01-18T11:01:24Z</time>
      </trkpt>
      <trkpt lat="48.12907" lon="6.61826">
        <ele>483</ele>
        <time>2022-01-18T11:01:28Z</time>
      </trkpt>
      <trkpt lat="48.12915" lon="6.61813">
        <ele>480</ele>
        <time>2022-01-18T11:01:31Z</time>
      </trkpt>
      <trkpt lat="48.12917" lon="6.61787">
        <ele>482</ele>
        <time>2022-01-18T11:01:35Z</time>
      </trkpt>
      <trkpt lat="48.12927" lon="6.61738">
        <ele>482</ele>
        <time>2022-01-18T11:01:43Z</time>
      </trkpt>
      <trkpt lat="48.12928" lon="6.61713">
        <ele>485</ele>
        <time>2022-01-18T11:01:47Z</time>
      </trkpt>
      <trkpt lat="48.12937" lon="6.61691">
        <ele>484</ele>
        <time>2022-01-18T11:01:51Z</time>
      </trkpt>
      <trkpt lat="48.12951" lon="6.61668">
        <ele>482</ele>
        <time>2022-01-18T11:01:56Z</time>
      </trkpt>
      <trkpt lat="48.12955" lon="6.61647">
        <ele>484</ele>
        <time>2022-01-18T11:01:59Z</time>
      </trkpt>
      <trkpt lat="48.12967" lon="6.61625">
        <ele>483</ele>
        <time>2022-01-18T11:02:04Z</time>
      </trkpt>
      <trkpt lat="48.12965" lon="6.61617">
        <ele>485</ele>
        <time>2022-01-18T11:02:05Z</time>
      </trkpt>
      <trkpt lat="48.12984" lon="6.61581">
        <ele>483</ele>
        <time>2022-01-18T11:02:12Z</time>
      </trkpt>
      <trkpt lat="48.13007" lon="6.61525">
        <ele>484</ele>
        <time>2022-01-18T11:02:22Z</time>
      </trkpt>
      <trkpt lat="48.13021" lon="6.61505">
        <ele>482</ele>
        <time>2022-01-18T11:02:27Z</time>
      </trkpt>
      <trkpt lat="48.13029" lon="6.61446">
        <ele>484</ele>
        <time>2022-01-18T11:02:36Z</time>
      </trkpt>
      <trkpt lat="48.13061" lon="6.61379">
        <ele>475</ele>
        <time>2022-01-18T11:02:49Z</time>
      </trkpt>
      <trkpt lat="48.13099" lon="6.61246">
        <ele>462</ele>
        <time>2022-01-18T11:03:12Z</time>
      </trkpt>
      <trkpt lat="48.13127" lon="6.61162">
        <ele>454</ele>
        <time>2022-01-18T11:03:26Z</time>
      </trkpt>
      <trkpt lat="48.13131" lon="6.61156">
        <ele>452</ele>
        <time>2022-01-18T11:03:28Z</time>
      </trkpt>
      <trkpt lat="48.13135" lon="6.61128">
        <ele>449</ele>
        <time>2022-01-18T11:03:32Z</time>
      </trkpt>
      <trkpt lat="48.13134" lon="6.61085">
        <ele>447</ele>
        <time>2022-01-18T11:03:39Z</time>
      </trkpt>
      <trkpt lat="48.13129" lon="6.61067">
        <ele>445</ele>
        <time>2022-01-18T11:03:42Z</time>
      </trkpt>
      <trkpt lat="48.13122" lon="6.61056">
        <ele>445</ele>
        <time>2022-01-18T11:03:44Z</time>
      </trkpt>
      <trkpt lat="48.13088" lon="6.61014">
        <ele>439</ele>
        <time>2022-01-18T11:03:55Z</time>
      </trkpt>
      <trkpt lat="48.13057" lon="6.61004">
        <ele>438</ele>
        <time>2022-01-18T11:04:02Z</time>
      </trkpt>
      <trkpt lat="48.1302" lon="6.60983">
        <ele>435</ele>
        <time>2022-01-18T11:04:11Z</time>
      </trkpt>
      <trkpt lat="48.12994" lon="6.60977">
        <ele>434</ele>
        <time>2022-01-18T11:04:17Z</time>
      </trkpt>
      <trkpt lat="48.12984" lon="6.60965">
        <ele>432</ele>
        <time>2022-01-18T11:04:20Z</time>
      </trkpt>
      <trkpt lat="48.12981" lon="6.60933">
        <ele>425</ele>
        <time>2022-01-18T11:04:25Z</time>
      </trkpt>
      <trkpt lat="48.12995" lon="6.60848">
        <ele>416</ele>
        <time>2022-01-18T11:04:39Z</time>
      </trkpt>
      <trkpt lat="48.13025" lon="6.60765">
        <ele>410</ele>
        <time>2022-01-18T11:04:54Z</time>
      </trkpt>
      <trkpt lat="48.13049" lon="6.60727">
        <ele>408</ele>
        <time>2022-01-18T11:05:02Z</time>
      </trkpt>
      <trkpt lat="48.13145" lon="6.60618">
        <ele>399</ele>
        <time>2022-01-18T11:05:30Z</time>
      </trkpt>
      <trkpt lat="48.13158" lon="6.6057">
        <ele>396</ele>
        <time>2022-01-18T11:05:38Z</time>
      </trkpt>
      <trkpt lat="48.13157" lon="6.60538">
        <ele>393</ele>
        <time>2022-01-18T11:05:43Z</time>
      </trkpt>
      <trkpt lat="48.13143" lon="6.60496">
        <ele>389</ele>
        <time>2022-01-18T11:05:50Z</time>
      </trkpt>
      <trkpt lat="48.13121" lon="6.60459">
        <ele>386</ele>
        <time>2022-01-18T11:05:58Z</time>
      </trkpt>
      <trkpt lat="48.13099" lon="6.60445">
        <ele>384</ele>
        <time>2022-01-18T11:06:04Z</time>
      </trkpt>
      <trkpt lat="48.13113" lon="6.60417">
        <ele>381</ele>
        <time>2022-01-18T11:06:09Z</time>
      </trkpt>
      <trkpt lat="48.13168" lon="6.604">
        <ele>380</ele>
        <time>2022-01-18T11:06:22Z</time>
      </trkpt>
      <trkpt lat="48.13214" lon="6.60408">
        <ele>380</ele>
        <time>2022-01-18T11:06:33Z</time>
      </trkpt>
      <trkpt lat="48.13303" lon="6.60415">
        <ele>374</ele>
        <time>2022-01-18T11:06:54Z</time>
      </trkpt>
      <trkpt lat="48.13357" lon="6.60444">
        <ele>374</ele>
        <time>2022-01-18T11:07:07Z</time>
      </trkpt>
      <trkpt lat="48.13396" lon="6.60382">
        <ele>369</ele>
        <time>2022-01-18T11:07:21Z</time>
      </trkpt>
      <trkpt lat="48.13416" lon="6.6036">
        <ele>370</ele>
        <time>2022-01-18T11:07:26Z</time>
      </trkpt>
      <trkpt lat="48.1347" lon="6.60341">
        <ele>370</ele>
        <time>2022-01-18T11:07:39Z</time>
      </trkpt>
      <trkpt lat="48.13493" lon="6.6034">
        <ele>369</ele>
        <time>2022-01-18T11:07:45Z</time>
      </trkpt>
      <trkpt lat="48.13576" lon="6.60346">
        <ele>370</ele>
        <time>2022-01-18T11:08:04Z</time>
      </trkpt>
      <trkpt lat="48.13628" lon="6.60387">
        <ele>369</ele>
        <time>2022-01-18T11:08:18Z</time>
      </trkpt>
      <trkpt lat="48.13676" lon="6.60419">
        <ele>370</ele>
        <time>2022-01-18T11:08:30Z</time>
      </trkpt>
      <trkpt lat="48.13712" lon="6.60436">
        <ele>370</ele>
        <time>2022-01-18T11:08:39Z</time>
      </trkpt>
      <trkpt lat="48.13749" lon="6.60436">
        <ele>371</ele>
        <time>2022-01-18T11:08:48Z</time>
      </trkpt>
      <trkpt lat="48.13781" lon="6.60432">
        <ele>371</ele>
        <time>2022-01-18T11:08:55Z</time>
      </trkpt>
      <trkpt lat="48.13851" lon="6.60374">
        <ele>372</ele>
        <time>2022-01-18T11:09:14Z</time>
      </trkpt>
      <trkpt lat="48.1387" lon="6.60341">
        <ele>373</ele>
        <time>2022-01-18T11:09:20Z</time>
      </trkpt>
    </trkseg>
  </trk>
</gpx>